<?xml version="1.0" encoding="UTF-8" standalone="no" ?>
<gpx xmlns="http://www.topografix.com/GPX/1/1" xmlns:xsi="http://www.w3.org/2001/XMLSchema-instance" xsi:schemaLocation="http://www.topografix.com/GPX/1/1 http://www.topografix.com/GPX/1/1/gpx.xsd" version="1.1" creator="VisuGPX - https://www.visugpx.com">
  <metadata>
    <name>Lamontagnarde 2015</name>
    <desc><![CDATA[Commencée avec Guillaume et Cédric, terminée avec Cédric, abandon de Guigui.]]></desc>
  </metadata>
  <trk>
    <name><![CDATA[2015-04-12 La montagnarde]]></name>
    <trkseg>
      <trkpt lat="50.11734" lon="3.54016">
        <ele>97.71</ele>
        <time>2015-04-12T06:44:58Z</time>
      </trkpt>
      <trkpt lat="50.11734" lon="3.54016">
        <ele>97.71</ele>
        <time>2015-04-12T06:44:59Z</time>
      </trkpt>
      <trkpt lat="50.11734" lon="3.54013">
        <ele>97.71</ele>
        <time>2015-04-12T06:45:15Z</time>
      </trkpt>
      <trkpt lat="50.11733" lon="3.54015">
        <ele>97.71</ele>
        <time>2015-04-12T06:45:24Z</time>
      </trkpt>
      <trkpt lat="50.11731" lon="3.54022">
        <ele>97.71</ele>
        <time>2015-04-12T06:45:27Z</time>
      </trkpt>
      <trkpt lat="50.1173" lon="3.54025">
        <ele>97.71</ele>
        <time>2015-04-12T06:45:28Z</time>
      </trkpt>
      <trkpt lat="50.11729" lon="3.54028">
        <ele>97.71</ele>
        <time>2015-04-12T06:45:29Z</time>
      </trkpt>
      <trkpt lat="50.11728" lon="3.54031">
        <ele>97.71</ele>
        <time>2015-04-12T06:45:30Z</time>
      </trkpt>
      <trkpt lat="50.11728" lon="3.54035">
        <ele>97.71</ele>
        <time>2015-04-12T06:45:31Z</time>
      </trkpt>
      <trkpt lat="50.11744" lon="3.54109">
        <ele>94.35</ele>
        <time>2015-04-12T06:45:48Z</time>
      </trkpt>
      <trkpt lat="50.11769" lon="3.54142">
        <ele>92.42</ele>
        <time>2015-04-12T06:46:03Z</time>
      </trkpt>
      <trkpt lat="50.11829" lon="3.5412">
        <ele>90.5</ele>
        <time>2015-04-12T06:46:16Z</time>
      </trkpt>
      <trkpt lat="50.11883" lon="3.54103">
        <ele>90.02</ele>
        <time>2015-04-12T06:46:29Z</time>
      </trkpt>
      <trkpt lat="50.1188" lon="3.54103">
        <ele>89.54</ele>
        <time>2015-04-12T06:46:46Z</time>
      </trkpt>
      <trkpt lat="50.11877" lon="3.54101">
        <ele>89.06</ele>
        <time>2015-04-12T06:47:15Z</time>
      </trkpt>
      <trkpt lat="50.11909" lon="3.54091">
        <ele>88.58</ele>
        <time>2015-04-12T06:47:25Z</time>
      </trkpt>
      <trkpt lat="50.11914" lon="3.54091">
        <ele>88.58</ele>
        <time>2015-04-12T06:47:26Z</time>
      </trkpt>
      <trkpt lat="50.11921" lon="3.54092">
        <ele>88.58</ele>
        <time>2015-04-12T06:47:27Z</time>
      </trkpt>
      <trkpt lat="50.11926" lon="3.54094">
        <ele>88.58</ele>
        <time>2015-04-12T06:47:28Z</time>
      </trkpt>
      <trkpt lat="50.11932" lon="3.54097">
        <ele>88.58</ele>
        <time>2015-04-12T06:47:29Z</time>
      </trkpt>
      <trkpt lat="50.11937" lon="3.54102">
        <ele>88.58</ele>
        <time>2015-04-12T06:47:30Z</time>
      </trkpt>
      <trkpt lat="50.11942" lon="3.54107">
        <ele>88.58</ele>
        <time>2015-04-12T06:47:31Z</time>
      </trkpt>
      <trkpt lat="50.11947" lon="3.54113">
        <ele>88.1</ele>
        <time>2015-04-12T06:47:32Z</time>
      </trkpt>
      <trkpt lat="50.11952" lon="3.54119">
        <ele>88.1</ele>
        <time>2015-04-12T06:47:33Z</time>
      </trkpt>
      <trkpt lat="50.11957" lon="3.54127">
        <ele>88.1</ele>
        <time>2015-04-12T06:47:34Z</time>
      </trkpt>
      <trkpt lat="50.12027" lon="3.54223">
        <ele>88.1</ele>
        <time>2015-04-12T06:47:50Z</time>
      </trkpt>
      <trkpt lat="50.12054" lon="3.54242">
        <ele>89.06</ele>
        <time>2015-04-12T06:47:56Z</time>
      </trkpt>
      <trkpt lat="50.12057" lon="3.54247">
        <ele>89.06</ele>
        <time>2015-04-12T06:47:57Z</time>
      </trkpt>
      <trkpt lat="50.1206" lon="3.54254">
        <ele>89.06</ele>
        <time>2015-04-12T06:47:58Z</time>
      </trkpt>
      <trkpt lat="50.12063" lon="3.54261">
        <ele>89.06</ele>
        <time>2015-04-12T06:47:59Z</time>
      </trkpt>
      <trkpt lat="50.12065" lon="3.54269">
        <ele>89.06</ele>
        <time>2015-04-12T06:48:00Z</time>
      </trkpt>
      <trkpt lat="50.12066" lon="3.54274">
        <ele>89.06</ele>
        <time>2015-04-12T06:48:01Z</time>
      </trkpt>
      <trkpt lat="50.12068" lon="3.54282">
        <ele>89.06</ele>
        <time>2015-04-12T06:48:02Z</time>
      </trkpt>
      <trkpt lat="50.12068" lon="3.54289">
        <ele>89.06</ele>
        <time>2015-04-12T06:48:03Z</time>
      </trkpt>
      <trkpt lat="50.12068" lon="3.54297">
        <ele>89.06</ele>
        <time>2015-04-12T06:48:04Z</time>
      </trkpt>
      <trkpt lat="50.12068" lon="3.54306">
        <ele>89.06</ele>
        <time>2015-04-12T06:48:05Z</time>
      </trkpt>
      <trkpt lat="50.12068" lon="3.54313">
        <ele>89.06</ele>
        <time>2015-04-12T06:48:06Z</time>
      </trkpt>
      <trkpt lat="50.12068" lon="3.5432">
        <ele>89.06</ele>
        <time>2015-04-12T06:48:07Z</time>
      </trkpt>
      <trkpt lat="50.12066" lon="3.54326">
        <ele>89.06</ele>
        <time>2015-04-12T06:48:08Z</time>
      </trkpt>
      <trkpt lat="50.12064" lon="3.54332">
        <ele>89.06</ele>
        <time>2015-04-12T06:48:09Z</time>
      </trkpt>
      <trkpt lat="50.12061" lon="3.54338">
        <ele>89.06</ele>
        <time>2015-04-12T06:48:10Z</time>
      </trkpt>
      <trkpt lat="50.12058" lon="3.54344">
        <ele>89.06</ele>
        <time>2015-04-12T06:48:11Z</time>
      </trkpt>
      <trkpt lat="50.12054" lon="3.5435">
        <ele>89.06</ele>
        <time>2015-04-12T06:48:12Z</time>
      </trkpt>
      <trkpt lat="50.11988" lon="3.54389">
        <ele>89.06</ele>
        <time>2015-04-12T06:48:26Z</time>
      </trkpt>
      <trkpt lat="50.11941" lon="3.54428">
        <ele>90.98</ele>
        <time>2015-04-12T06:48:43Z</time>
      </trkpt>
      <trkpt lat="50.11931" lon="3.54566">
        <ele>90.98</ele>
        <time>2015-04-12T06:49:02Z</time>
      </trkpt>
      <trkpt lat="50.11929" lon="3.54635">
        <ele>89.06</ele>
        <time>2015-04-12T06:49:13Z</time>
      </trkpt>
      <trkpt lat="50.11971" lon="3.54721">
        <ele>89.06</ele>
        <time>2015-04-12T06:49:30Z</time>
      </trkpt>
      <trkpt lat="50.11977" lon="3.54728">
        <ele>90.5</ele>
        <time>2015-04-12T06:49:32Z</time>
      </trkpt>
      <trkpt lat="50.12028" lon="3.54801">
        <ele>93.87</ele>
        <time>2015-04-12T06:49:50Z</time>
      </trkpt>
      <trkpt lat="50.12062" lon="3.5493">
        <ele>94.35</ele>
        <time>2015-04-12T06:50:12Z</time>
      </trkpt>
      <trkpt lat="50.12097" lon="3.55071">
        <ele>96.27</ele>
        <time>2015-04-12T06:50:38Z</time>
      </trkpt>
      <trkpt lat="50.12132" lon="3.55249">
        <ele>96.27</ele>
        <time>2015-04-12T06:51:06Z</time>
      </trkpt>
      <trkpt lat="50.12142" lon="3.55298">
        <ele>94.83</ele>
        <time>2015-04-12T06:51:13Z</time>
      </trkpt>
      <trkpt lat="50.1214" lon="3.55425">
        <ele>93.87</ele>
        <time>2015-04-12T06:51:32Z</time>
      </trkpt>
      <trkpt lat="50.1211" lon="3.55448">
        <ele>92.42</ele>
        <time>2015-04-12T06:51:40Z</time>
      </trkpt>
      <trkpt lat="50.12104" lon="3.55449">
        <ele>92.42</ele>
        <time>2015-04-12T06:51:41Z</time>
      </trkpt>
      <trkpt lat="50.12098" lon="3.55449">
        <ele>92.42</ele>
        <time>2015-04-12T06:51:42Z</time>
      </trkpt>
      <trkpt lat="50.12005" lon="3.55436">
        <ele>93.87</ele>
        <time>2015-04-12T06:51:59Z</time>
      </trkpt>
      <trkpt lat="50.11905" lon="3.55407">
        <ele>97.71</ele>
        <time>2015-04-12T06:52:24Z</time>
      </trkpt>
      <trkpt lat="50.11848" lon="3.5539">
        <ele>100.6</ele>
        <time>2015-04-12T06:52:41Z</time>
      </trkpt>
      <trkpt lat="50.11792" lon="3.55372">
        <ele>103.96</ele>
        <time>2015-04-12T06:52:58Z</time>
      </trkpt>
      <trkpt lat="50.11737" lon="3.55354">
        <ele>107.32</ele>
        <time>2015-04-12T06:53:17Z</time>
      </trkpt>
      <trkpt lat="50.11679" lon="3.55328">
        <ele>110.21</ele>
        <time>2015-04-12T06:53:38Z</time>
      </trkpt>
      <trkpt lat="50.11613" lon="3.55291">
        <ele>112.13</ele>
        <time>2015-04-12T06:53:58Z</time>
      </trkpt>
      <trkpt lat="50.11531" lon="3.55239">
        <ele>112.13</ele>
        <time>2015-04-12T06:54:23Z</time>
      </trkpt>
      <trkpt lat="50.11446" lon="3.55177">
        <ele>112.13</ele>
        <time>2015-04-12T06:54:48Z</time>
      </trkpt>
      <trkpt lat="50.11388" lon="3.55154">
        <ele>110.21</ele>
        <time>2015-04-12T06:55:06Z</time>
      </trkpt>
      <trkpt lat="50.11317" lon="3.55211">
        <ele>112.61</ele>
        <time>2015-04-12T06:55:26Z</time>
      </trkpt>
      <trkpt lat="50.11254" lon="3.55249">
        <ele>115.98</ele>
        <time>2015-04-12T06:55:46Z</time>
      </trkpt>
      <trkpt lat="50.11207" lon="3.5531">
        <ele>118.86</ele>
        <time>2015-04-12T06:56:06Z</time>
      </trkpt>
      <trkpt lat="50.11182" lon="3.55385">
        <ele>122.71</ele>
        <time>2015-04-12T06:56:26Z</time>
      </trkpt>
      <trkpt lat="50.11155" lon="3.55471">
        <ele>125.59</ele>
        <time>2015-04-12T06:56:48Z</time>
      </trkpt>
      <trkpt lat="50.11128" lon="3.55551">
        <ele>128.95</ele>
        <time>2015-04-12T06:57:12Z</time>
      </trkpt>
      <trkpt lat="50.11096" lon="3.55652">
        <ele>131.36</ele>
        <time>2015-04-12T06:57:41Z</time>
      </trkpt>
      <trkpt lat="50.11059" lon="3.55755">
        <ele>133.76</ele>
        <time>2015-04-12T06:58:08Z</time>
      </trkpt>
      <trkpt lat="50.11024" lon="3.55841">
        <ele>137.13</ele>
        <time>2015-04-12T06:58:34Z</time>
      </trkpt>
      <trkpt lat="50.10988" lon="3.55893">
        <ele>139.05</ele>
        <time>2015-04-12T06:58:54Z</time>
      </trkpt>
      <trkpt lat="50.10955" lon="3.55816">
        <ele>139.05</ele>
        <time>2015-04-12T06:59:12Z</time>
      </trkpt>
      <trkpt lat="50.10901" lon="3.55709">
        <ele>140.01</ele>
        <time>2015-04-12T06:59:39Z</time>
      </trkpt>
      <trkpt lat="50.10843" lon="3.556">
        <ele>138.09</ele>
        <time>2015-04-12T07:00:01Z</time>
      </trkpt>
      <trkpt lat="50.10775" lon="3.55503">
        <ele>134.72</ele>
        <time>2015-04-12T07:00:23Z</time>
      </trkpt>
      <trkpt lat="50.10714" lon="3.55419">
        <ele>131.84</ele>
        <time>2015-04-12T07:00:37Z</time>
      </trkpt>
      <trkpt lat="50.10643" lon="3.55292">
        <ele>128.47</ele>
        <time>2015-04-12T07:00:54Z</time>
      </trkpt>
      <trkpt lat="50.10554" lon="3.5522">
        <ele>126.07</ele>
        <time>2015-04-12T07:01:10Z</time>
      </trkpt>
      <trkpt lat="50.10468" lon="3.55198">
        <ele>123.19</ele>
        <time>2015-04-12T07:01:27Z</time>
      </trkpt>
      <trkpt lat="50.10413" lon="3.5519">
        <ele>119.82</ele>
        <time>2015-04-12T07:01:35Z</time>
      </trkpt>
      <trkpt lat="50.10362" lon="3.5518">
        <ele>116.94</ele>
        <time>2015-04-12T07:01:42Z</time>
      </trkpt>
      <trkpt lat="50.10324" lon="3.55173">
        <ele>115.5</ele>
        <time>2015-04-12T07:01:47Z</time>
      </trkpt>
      <trkpt lat="50.10317" lon="3.5517">
        <ele>114.53</ele>
        <time>2015-04-12T07:01:48Z</time>
      </trkpt>
      <trkpt lat="50.10312" lon="3.55165">
        <ele>114.53</ele>
        <time>2015-04-12T07:01:49Z</time>
      </trkpt>
      <trkpt lat="50.10307" lon="3.55159">
        <ele>114.05</ele>
        <time>2015-04-12T07:01:50Z</time>
      </trkpt>
      <trkpt lat="50.10303" lon="3.55153">
        <ele>114.05</ele>
        <time>2015-04-12T07:01:51Z</time>
      </trkpt>
      <trkpt lat="50.10301" lon="3.55145">
        <ele>113.57</ele>
        <time>2015-04-12T07:01:52Z</time>
      </trkpt>
      <trkpt lat="50.103" lon="3.55136">
        <ele>114.05</ele>
        <time>2015-04-12T07:01:53Z</time>
      </trkpt>
      <trkpt lat="50.10289" lon="3.551">
        <ele>113.09</ele>
        <time>2015-04-12T07:02:03Z</time>
      </trkpt>
      <trkpt lat="50.10232" lon="3.55083">
        <ele>114.05</ele>
        <time>2015-04-12T07:02:20Z</time>
      </trkpt>
      <trkpt lat="50.10203" lon="3.55072">
        <ele>116.94</ele>
        <time>2015-04-12T07:02:29Z</time>
      </trkpt>
      <trkpt lat="50.10176" lon="3.55059">
        <ele>118.38</ele>
        <time>2015-04-12T07:02:41Z</time>
      </trkpt>
      <trkpt lat="50.10176" lon="3.55061">
        <ele>118.38</ele>
        <time>2015-04-12T07:02:42Z</time>
      </trkpt>
      <trkpt lat="50.10175" lon="3.55064">
        <ele>118.38</ele>
        <time>2015-04-12T07:02:43Z</time>
      </trkpt>
      <trkpt lat="50.10175" lon="3.55152">
        <ele>118.38</ele>
        <time>2015-04-12T07:02:56Z</time>
      </trkpt>
      <trkpt lat="50.10178" lon="3.55297">
        <ele>118.86</ele>
        <time>2015-04-12T07:03:17Z</time>
      </trkpt>
      <trkpt lat="50.10147" lon="3.55417">
        <ele>121.26</ele>
        <time>2015-04-12T07:03:39Z</time>
      </trkpt>
      <trkpt lat="50.101" lon="3.55522">
        <ele>124.15</ele>
        <time>2015-04-12T07:04:01Z</time>
      </trkpt>
      <trkpt lat="50.10045" lon="3.55585">
        <ele>126.55</ele>
        <time>2015-04-12T07:04:20Z</time>
      </trkpt>
      <trkpt lat="50.09987" lon="3.55646">
        <ele>127.51</ele>
        <time>2015-04-12T07:04:41Z</time>
      </trkpt>
      <trkpt lat="50.09928" lon="3.55728">
        <ele>129.92</ele>
        <time>2015-04-12T07:05:08Z</time>
      </trkpt>
      <trkpt lat="50.09892" lon="3.5579">
        <ele>131.36</ele>
        <time>2015-04-12T07:05:27Z</time>
      </trkpt>
      <trkpt lat="50.0985" lon="3.55881">
        <ele>133.28</ele>
        <time>2015-04-12T07:05:49Z</time>
      </trkpt>
      <trkpt lat="50.09824" lon="3.55965">
        <ele>134.72</ele>
        <time>2015-04-12T07:06:12Z</time>
      </trkpt>
      <trkpt lat="50.09799" lon="3.56063">
        <ele>136.64</ele>
        <time>2015-04-12T07:06:38Z</time>
      </trkpt>
      <trkpt lat="50.09781" lon="3.56149">
        <ele>138.57</ele>
        <time>2015-04-12T07:07:02Z</time>
      </trkpt>
      <trkpt lat="50.09764" lon="3.56251">
        <ele>140.49</ele>
        <time>2015-04-12T07:07:27Z</time>
      </trkpt>
      <trkpt lat="50.09767" lon="3.56356">
        <ele>142.41</ele>
        <time>2015-04-12T07:07:51Z</time>
      </trkpt>
      <trkpt lat="50.09761" lon="3.56373">
        <ele>143.37</ele>
        <time>2015-04-12T07:07:59Z</time>
      </trkpt>
      <trkpt lat="50.09759" lon="3.56372">
        <ele>143.37</ele>
        <time>2015-04-12T07:08:00Z</time>
      </trkpt>
      <trkpt lat="50.09757" lon="3.5637">
        <ele>143.37</ele>
        <time>2015-04-12T07:08:01Z</time>
      </trkpt>
      <trkpt lat="50.097" lon="3.56341">
        <ele>143.37</ele>
        <time>2015-04-12T07:08:20Z</time>
      </trkpt>
      <trkpt lat="50.09666" lon="3.56355">
        <ele>143.37</ele>
        <time>2015-04-12T07:08:34Z</time>
      </trkpt>
      <trkpt lat="50.09646" lon="3.56362">
        <ele>144.34</ele>
        <time>2015-04-12T07:08:46Z</time>
      </trkpt>
      <trkpt lat="50.09593" lon="3.5634">
        <ele>146.26</ele>
        <time>2015-04-12T07:09:10Z</time>
      </trkpt>
      <trkpt lat="50.09541" lon="3.56315">
        <ele>147.22</ele>
        <time>2015-04-12T07:09:29Z</time>
      </trkpt>
      <trkpt lat="50.09465" lon="3.56284">
        <ele>148.18</ele>
        <time>2015-04-12T07:09:56Z</time>
      </trkpt>
      <trkpt lat="50.0939" lon="3.56252">
        <ele>147.7</ele>
        <time>2015-04-12T07:10:22Z</time>
      </trkpt>
      <trkpt lat="50.09311" lon="3.56222">
        <ele>147.7</ele>
        <time>2015-04-12T07:10:46Z</time>
      </trkpt>
      <trkpt lat="50.093" lon="3.56217">
        <ele>146.74</ele>
        <time>2015-04-12T07:10:49Z</time>
      </trkpt>
      <trkpt lat="50.09217" lon="3.5619">
        <ele>145.78</ele>
        <time>2015-04-12T07:11:13Z</time>
      </trkpt>
      <trkpt lat="50.09199" lon="3.56251">
        <ele>144.82</ele>
        <time>2015-04-12T07:11:24Z</time>
      </trkpt>
      <trkpt lat="50.09177" lon="3.56333">
        <ele>146.26</ele>
        <time>2015-04-12T07:11:38Z</time>
      </trkpt>
      <trkpt lat="50.09145" lon="3.56438">
        <ele>146.74</ele>
        <time>2015-04-12T07:11:54Z</time>
      </trkpt>
      <trkpt lat="50.09119" lon="3.56514">
        <ele>143.37</ele>
        <time>2015-04-12T07:12:05Z</time>
      </trkpt>
      <trkpt lat="50.09074" lon="3.56655">
        <ele>140.01</ele>
        <time>2015-04-12T07:12:26Z</time>
      </trkpt>
      <trkpt lat="50.09032" lon="3.56789">
        <ele>140.01</ele>
        <time>2015-04-12T07:12:48Z</time>
      </trkpt>
      <trkpt lat="50.09024" lon="3.56814">
        <ele>140.97</ele>
        <time>2015-04-12T07:12:52Z</time>
      </trkpt>
      <trkpt lat="50.08995" lon="3.56898">
        <ele>144.34</ele>
        <time>2015-04-12T07:13:08Z</time>
      </trkpt>
      <trkpt lat="50.0897" lon="3.56977">
        <ele>145.3</ele>
        <time>2015-04-12T07:13:27Z</time>
      </trkpt>
      <trkpt lat="50.08962" lon="3.57003">
        <ele>145.78</ele>
        <time>2015-04-12T07:13:40Z</time>
      </trkpt>
      <trkpt lat="50.08964" lon="3.57006">
        <ele>145.78</ele>
        <time>2015-04-12T07:13:55Z</time>
      </trkpt>
      <trkpt lat="50.08962" lon="3.57009">
        <ele>146.26</ele>
        <time>2015-04-12T07:13:56Z</time>
      </trkpt>
      <trkpt lat="50.08937" lon="3.57088">
        <ele>146.26</ele>
        <time>2015-04-12T07:14:15Z</time>
      </trkpt>
      <trkpt lat="50.08935" lon="3.57096">
        <ele>144.82</ele>
        <time>2015-04-12T07:14:17Z</time>
      </trkpt>
      <trkpt lat="50.08898" lon="3.57206">
        <ele>141.93</ele>
        <time>2015-04-12T07:14:38Z</time>
      </trkpt>
      <trkpt lat="50.08869" lon="3.57297">
        <ele>142.89</ele>
        <time>2015-04-12T07:14:52Z</time>
      </trkpt>
      <trkpt lat="50.08867" lon="3.57337">
        <ele>143.37</ele>
        <time>2015-04-12T07:15:02Z</time>
      </trkpt>
      <trkpt lat="50.08914" lon="3.57361">
        <ele>143.37</ele>
        <time>2015-04-12T07:15:18Z</time>
      </trkpt>
      <trkpt lat="50.08948" lon="3.57379">
        <ele>142.41</ele>
        <time>2015-04-12T07:15:28Z</time>
      </trkpt>
      <trkpt lat="50.09004" lon="3.57411">
        <ele>141.93</ele>
        <time>2015-04-12T07:15:47Z</time>
      </trkpt>
      <trkpt lat="50.09038" lon="3.57434">
        <ele>141.93</ele>
        <time>2015-04-12T07:15:57Z</time>
      </trkpt>
      <trkpt lat="50.0912" lon="3.57466">
        <ele>140.97</ele>
        <time>2015-04-12T07:16:17Z</time>
      </trkpt>
      <trkpt lat="50.09215" lon="3.57487">
        <ele>137.61</ele>
        <time>2015-04-12T07:16:38Z</time>
      </trkpt>
      <trkpt lat="50.09322" lon="3.57501">
        <ele>135.68</ele>
        <time>2015-04-12T07:16:57Z</time>
      </trkpt>
      <trkpt lat="50.09418" lon="3.57516">
        <ele>134.72</ele>
        <time>2015-04-12T07:17:17Z</time>
      </trkpt>
      <trkpt lat="50.09422" lon="3.57519">
        <ele>134.72</ele>
        <time>2015-04-12T07:17:18Z</time>
      </trkpt>
      <trkpt lat="50.09426" lon="3.57523">
        <ele>134.72</ele>
        <time>2015-04-12T07:17:19Z</time>
      </trkpt>
      <trkpt lat="50.09429" lon="3.57527">
        <ele>134.72</ele>
        <time>2015-04-12T07:17:20Z</time>
      </trkpt>
      <trkpt lat="50.09433" lon="3.57532">
        <ele>134.24</ele>
        <time>2015-04-12T07:17:21Z</time>
      </trkpt>
      <trkpt lat="50.09436" lon="3.57537">
        <ele>134.24</ele>
        <time>2015-04-12T07:17:22Z</time>
      </trkpt>
      <trkpt lat="50.09439" lon="3.57544">
        <ele>134.24</ele>
        <time>2015-04-12T07:17:23Z</time>
      </trkpt>
      <trkpt lat="50.09442" lon="3.57551">
        <ele>134.24</ele>
        <time>2015-04-12T07:17:24Z</time>
      </trkpt>
      <trkpt lat="50.09445" lon="3.57558">
        <ele>134.24</ele>
        <time>2015-04-12T07:17:25Z</time>
      </trkpt>
      <trkpt lat="50.09497" lon="3.57676">
        <ele>132.32</ele>
        <time>2015-04-12T07:17:44Z</time>
      </trkpt>
      <trkpt lat="50.09542" lon="3.57733">
        <ele>129.92</ele>
        <time>2015-04-12T07:17:58Z</time>
      </trkpt>
      <trkpt lat="50.09568" lon="3.57691">
        <ele>130.4</ele>
        <time>2015-04-12T07:18:09Z</time>
      </trkpt>
      <trkpt lat="50.0957" lon="3.57673">
        <ele>131.36</ele>
        <time>2015-04-12T07:18:11Z</time>
      </trkpt>
      <trkpt lat="50.09592" lon="3.57571">
        <ele>133.76</ele>
        <time>2015-04-12T07:18:23Z</time>
      </trkpt>
      <trkpt lat="50.09596" lon="3.57564">
        <ele>133.76</ele>
        <time>2015-04-12T07:18:24Z</time>
      </trkpt>
      <trkpt lat="50.09599" lon="3.57561">
        <ele>133.76</ele>
        <time>2015-04-12T07:18:25Z</time>
      </trkpt>
      <trkpt lat="50.09602" lon="3.5756">
        <ele>133.76</ele>
        <time>2015-04-12T07:18:26Z</time>
      </trkpt>
      <trkpt lat="50.09606" lon="3.57561">
        <ele>133.28</ele>
        <time>2015-04-12T07:18:27Z</time>
      </trkpt>
      <trkpt lat="50.09608" lon="3.57564">
        <ele>133.76</ele>
        <time>2015-04-12T07:18:28Z</time>
      </trkpt>
      <trkpt lat="50.09611" lon="3.57568">
        <ele>133.28</ele>
        <time>2015-04-12T07:18:29Z</time>
      </trkpt>
      <trkpt lat="50.09614" lon="3.57573">
        <ele>133.28</ele>
        <time>2015-04-12T07:18:30Z</time>
      </trkpt>
      <trkpt lat="50.09617" lon="3.57578">
        <ele>133.28</ele>
        <time>2015-04-12T07:18:31Z</time>
      </trkpt>
      <trkpt lat="50.09619" lon="3.57585">
        <ele>133.28</ele>
        <time>2015-04-12T07:18:32Z</time>
      </trkpt>
      <trkpt lat="50.0968" lon="3.57712">
        <ele>131.84</ele>
        <time>2015-04-12T07:18:55Z</time>
      </trkpt>
      <trkpt lat="50.09745" lon="3.57813">
        <ele>128.95</ele>
        <time>2015-04-12T07:19:15Z</time>
      </trkpt>
      <trkpt lat="50.0976" lon="3.57836">
        <ele>128.47</ele>
        <time>2015-04-12T07:19:19Z</time>
      </trkpt>
      <trkpt lat="50.09763" lon="3.57839">
        <ele>128.47</ele>
        <time>2015-04-12T07:19:20Z</time>
      </trkpt>
      <trkpt lat="50.09767" lon="3.5784">
        <ele>128.47</ele>
        <time>2015-04-12T07:19:21Z</time>
      </trkpt>
      <trkpt lat="50.0977" lon="3.57839">
        <ele>127.99</ele>
        <time>2015-04-12T07:19:22Z</time>
      </trkpt>
      <trkpt lat="50.09772" lon="3.57837">
        <ele>127.99</ele>
        <time>2015-04-12T07:19:23Z</time>
      </trkpt>
      <trkpt lat="50.09774" lon="3.57834">
        <ele>127.99</ele>
        <time>2015-04-12T07:19:24Z</time>
      </trkpt>
      <trkpt lat="50.09775" lon="3.5783">
        <ele>127.99</ele>
        <time>2015-04-12T07:19:25Z</time>
      </trkpt>
      <trkpt lat="50.09775" lon="3.57826">
        <ele>127.99</ele>
        <time>2015-04-12T07:19:26Z</time>
      </trkpt>
      <trkpt lat="50.09776" lon="3.57821">
        <ele>127.99</ele>
        <time>2015-04-12T07:19:27Z</time>
      </trkpt>
      <trkpt lat="50.09776" lon="3.57816">
        <ele>128.47</ele>
        <time>2015-04-12T07:19:28Z</time>
      </trkpt>
      <trkpt lat="50.09778" lon="3.57805">
        <ele>129.43</ele>
        <time>2015-04-12T07:19:30Z</time>
      </trkpt>
      <trkpt lat="50.09807" lon="3.57753">
        <ele>131.84</ele>
        <time>2015-04-12T07:19:45Z</time>
      </trkpt>
      <trkpt lat="50.09842" lon="3.57708">
        <ele>135.2</ele>
        <time>2015-04-12T07:20:03Z</time>
      </trkpt>
      <trkpt lat="50.09882" lon="3.57649">
        <ele>137.61</ele>
        <time>2015-04-12T07:20:24Z</time>
      </trkpt>
      <trkpt lat="50.09925" lon="3.57575">
        <ele>136.64</ele>
        <time>2015-04-12T07:20:46Z</time>
      </trkpt>
      <trkpt lat="50.0997" lon="3.57511">
        <ele>134.24</ele>
        <time>2015-04-12T07:21:04Z</time>
      </trkpt>
      <trkpt lat="50.09979" lon="3.57499">
        <ele>132.8</ele>
        <time>2015-04-12T07:21:07Z</time>
      </trkpt>
      <trkpt lat="50.10023" lon="3.57443">
        <ele>129.92</ele>
        <time>2015-04-12T07:21:19Z</time>
      </trkpt>
      <trkpt lat="50.10121" lon="3.57361">
        <ele>127.03</ele>
        <time>2015-04-12T07:21:41Z</time>
      </trkpt>
      <trkpt lat="50.1018" lon="3.57301">
        <ele>128.47</ele>
        <time>2015-04-12T07:21:59Z</time>
      </trkpt>
      <trkpt lat="50.10181" lon="3.57302">
        <ele>128.47</ele>
        <time>2015-04-12T07:22:00Z</time>
      </trkpt>
      <trkpt lat="50.10183" lon="3.57306">
        <ele>127.99</ele>
        <time>2015-04-12T07:22:01Z</time>
      </trkpt>
      <trkpt lat="50.10184" lon="3.5731">
        <ele>127.99</ele>
        <time>2015-04-12T07:22:02Z</time>
      </trkpt>
      <trkpt lat="50.10185" lon="3.57314">
        <ele>127.03</ele>
        <time>2015-04-12T07:22:03Z</time>
      </trkpt>
      <trkpt lat="50.10186" lon="3.57318">
        <ele>127.03</ele>
        <time>2015-04-12T07:22:04Z</time>
      </trkpt>
      <trkpt lat="50.10189" lon="3.5741">
        <ele>124.63</ele>
        <time>2015-04-12T07:22:17Z</time>
      </trkpt>
      <trkpt lat="50.10158" lon="3.57554">
        <ele>123.19</ele>
        <time>2015-04-12T07:22:32Z</time>
      </trkpt>
      <trkpt lat="50.10138" lon="3.57671">
        <ele>123.19</ele>
        <time>2015-04-12T07:22:44Z</time>
      </trkpt>
      <trkpt lat="50.10138" lon="3.57681">
        <ele>123.19</ele>
        <time>2015-04-12T07:22:45Z</time>
      </trkpt>
      <trkpt lat="50.10139" lon="3.57691">
        <ele>122.71</ele>
        <time>2015-04-12T07:22:46Z</time>
      </trkpt>
      <trkpt lat="50.1014" lon="3.57702">
        <ele>122.71</ele>
        <time>2015-04-12T07:22:47Z</time>
      </trkpt>
      <trkpt lat="50.10142" lon="3.57712">
        <ele>121.74</ele>
        <time>2015-04-12T07:22:48Z</time>
      </trkpt>
      <trkpt lat="50.10162" lon="3.57772">
        <ele>118.86</ele>
        <time>2015-04-12T07:22:54Z</time>
      </trkpt>
      <trkpt lat="50.10174" lon="3.57803">
        <ele>117.42</ele>
        <time>2015-04-12T07:22:57Z</time>
      </trkpt>
      <trkpt lat="50.10192" lon="3.57845">
        <ele>114.53</ele>
        <time>2015-04-12T07:23:01Z</time>
      </trkpt>
      <trkpt lat="50.10216" lon="3.57907">
        <ele>111.17</ele>
        <time>2015-04-12T07:23:08Z</time>
      </trkpt>
      <trkpt lat="50.10235" lon="3.57974">
        <ele>108.77</ele>
        <time>2015-04-12T07:23:20Z</time>
      </trkpt>
      <trkpt lat="50.1023" lon="3.57964">
        <ele>108.77</ele>
        <time>2015-04-12T07:23:40Z</time>
      </trkpt>
      <trkpt lat="50.10226" lon="3.5797">
        <ele>110.21</ele>
        <time>2015-04-12T07:23:46Z</time>
      </trkpt>
      <trkpt lat="50.10209" lon="3.58034">
        <ele>111.65</ele>
        <time>2015-04-12T07:23:59Z</time>
      </trkpt>
      <trkpt lat="50.10207" lon="3.58067">
        <ele>111.65</ele>
        <time>2015-04-12T07:24:03Z</time>
      </trkpt>
      <trkpt lat="50.10216" lon="3.58199">
        <ele>114.05</ele>
        <time>2015-04-12T07:24:19Z</time>
      </trkpt>
      <trkpt lat="50.10202" lon="3.58267">
        <ele>116.46</ele>
        <time>2015-04-12T07:24:34Z</time>
      </trkpt>
      <trkpt lat="50.10178" lon="3.5834">
        <ele>119.82</ele>
        <time>2015-04-12T07:24:53Z</time>
      </trkpt>
      <trkpt lat="50.10167" lon="3.58406">
        <ele>122.22</ele>
        <time>2015-04-12T07:25:12Z</time>
      </trkpt>
      <trkpt lat="50.10169" lon="3.58414">
        <ele>123.19</ele>
        <time>2015-04-12T07:25:14Z</time>
      </trkpt>
      <trkpt lat="50.1017" lon="3.58415">
        <ele>123.19</ele>
        <time>2015-04-12T07:25:15Z</time>
      </trkpt>
      <trkpt lat="50.10172" lon="3.58416">
        <ele>123.67</ele>
        <time>2015-04-12T07:25:16Z</time>
      </trkpt>
      <trkpt lat="50.10173" lon="3.58416">
        <ele>123.67</ele>
        <time>2015-04-12T07:25:17Z</time>
      </trkpt>
      <trkpt lat="50.10176" lon="3.58416">
        <ele>124.15</ele>
        <time>2015-04-12T07:25:18Z</time>
      </trkpt>
      <trkpt lat="50.10238" lon="3.58396">
        <ele>125.11</ele>
        <time>2015-04-12T07:25:40Z</time>
      </trkpt>
      <trkpt lat="50.10273" lon="3.58384">
        <ele>125.11</ele>
        <time>2015-04-12T07:25:59Z</time>
      </trkpt>
      <trkpt lat="50.1029" lon="3.58379">
        <ele>125.11</ele>
        <time>2015-04-12T07:26:16Z</time>
      </trkpt>
      <trkpt lat="50.10288" lon="3.58377">
        <ele>125.11</ele>
        <time>2015-04-12T07:26:47Z</time>
      </trkpt>
      <trkpt lat="50.10287" lon="3.58377">
        <ele>125.11</ele>
        <time>2015-04-12T07:27:19Z</time>
      </trkpt>
      <trkpt lat="50.10325" lon="3.58364">
        <ele>125.11</ele>
        <time>2015-04-12T07:27:34Z</time>
      </trkpt>
      <trkpt lat="50.10388" lon="3.58346">
        <ele>125.59</ele>
        <time>2015-04-12T07:27:57Z</time>
      </trkpt>
      <trkpt lat="50.10443" lon="3.58329">
        <ele>127.51</ele>
        <time>2015-04-12T07:28:16Z</time>
      </trkpt>
      <trkpt lat="50.10494" lon="3.58314">
        <ele>127.99</ele>
        <time>2015-04-12T07:28:37Z</time>
      </trkpt>
      <trkpt lat="50.10505" lon="3.58355">
        <ele>127.99</ele>
        <time>2015-04-12T07:28:45Z</time>
      </trkpt>
      <trkpt lat="50.10505" lon="3.5838">
        <ele>128.47</ele>
        <time>2015-04-12T07:28:50Z</time>
      </trkpt>
      <trkpt lat="50.10502" lon="3.58388">
        <ele>128.47</ele>
        <time>2015-04-12T07:28:59Z</time>
      </trkpt>
      <trkpt lat="50.10503" lon="3.58391">
        <ele>128.47</ele>
        <time>2015-04-12T07:29:00Z</time>
      </trkpt>
      <trkpt lat="50.10513" lon="3.58458">
        <ele>129.92</ele>
        <time>2015-04-12T07:29:15Z</time>
      </trkpt>
      <trkpt lat="50.10522" lon="3.58545">
        <ele>132.32</ele>
        <time>2015-04-12T07:29:34Z</time>
      </trkpt>
      <trkpt lat="50.10534" lon="3.5865">
        <ele>135.2</ele>
        <time>2015-04-12T07:29:57Z</time>
      </trkpt>
      <trkpt lat="50.10549" lon="3.58769">
        <ele>137.61</ele>
        <time>2015-04-12T07:30:19Z</time>
      </trkpt>
      <trkpt lat="50.10571" lon="3.58873">
        <ele>139.05</ele>
        <time>2015-04-12T07:30:40Z</time>
      </trkpt>
      <trkpt lat="50.10575" lon="3.58957">
        <ele>139.53</ele>
        <time>2015-04-12T07:30:55Z</time>
      </trkpt>
      <trkpt lat="50.10587" lon="3.59058">
        <ele>140.01</ele>
        <time>2015-04-12T07:31:13Z</time>
      </trkpt>
      <trkpt lat="50.10614" lon="3.59188">
        <ele>137.13</ele>
        <time>2015-04-12T07:31:35Z</time>
      </trkpt>
      <trkpt lat="50.10639" lon="3.593">
        <ele>137.61</ele>
        <time>2015-04-12T07:31:55Z</time>
      </trkpt>
      <trkpt lat="50.10651" lon="3.59399">
        <ele>140.49</ele>
        <time>2015-04-12T07:32:09Z</time>
      </trkpt>
      <trkpt lat="50.10666" lon="3.59476">
        <ele>141.93</ele>
        <time>2015-04-12T07:32:24Z</time>
      </trkpt>
      <trkpt lat="50.10687" lon="3.59573">
        <ele>144.82</ele>
        <time>2015-04-12T07:32:45Z</time>
      </trkpt>
      <trkpt lat="50.10717" lon="3.59657">
        <ele>147.22</ele>
        <time>2015-04-12T07:33:09Z</time>
      </trkpt>
      <trkpt lat="50.10782" lon="3.59713">
        <ele>148.18</ele>
        <time>2015-04-12T07:33:30Z</time>
      </trkpt>
      <trkpt lat="50.10806" lon="3.59773">
        <ele>148.66</ele>
        <time>2015-04-12T07:33:44Z</time>
      </trkpt>
      <trkpt lat="50.10804" lon="3.59776">
        <ele>148.66</ele>
        <time>2015-04-12T07:33:45Z</time>
      </trkpt>
      <trkpt lat="50.10802" lon="3.59778">
        <ele>149.14</ele>
        <time>2015-04-12T07:33:46Z</time>
      </trkpt>
      <trkpt lat="50.10799" lon="3.59781">
        <ele>148.66</ele>
        <time>2015-04-12T07:33:47Z</time>
      </trkpt>
      <trkpt lat="50.10795" lon="3.59784">
        <ele>148.66</ele>
        <time>2015-04-12T07:33:48Z</time>
      </trkpt>
      <trkpt lat="50.10791" lon="3.59787">
        <ele>149.14</ele>
        <time>2015-04-12T07:33:49Z</time>
      </trkpt>
      <trkpt lat="50.10786" lon="3.5979">
        <ele>148.66</ele>
        <time>2015-04-12T07:33:50Z</time>
      </trkpt>
      <trkpt lat="50.10714" lon="3.59838">
        <ele>149.14</ele>
        <time>2015-04-12T07:34:07Z</time>
      </trkpt>
      <trkpt lat="50.10704" lon="3.59871">
        <ele>149.14</ele>
        <time>2015-04-12T07:34:14Z</time>
      </trkpt>
      <trkpt lat="50.10733" lon="3.59998">
        <ele>147.22</ele>
        <time>2015-04-12T07:34:31Z</time>
      </trkpt>
      <trkpt lat="50.10757" lon="3.60068">
        <ele>145.3</ele>
        <time>2015-04-12T07:34:43Z</time>
      </trkpt>
      <trkpt lat="50.1076" lon="3.60067">
        <ele>145.3</ele>
        <time>2015-04-12T07:34:44Z</time>
      </trkpt>
      <trkpt lat="50.10829" lon="3.60054">
        <ele>144.34</ele>
        <time>2015-04-12T07:34:55Z</time>
      </trkpt>
      <trkpt lat="50.10882" lon="3.60048">
        <ele>145.78</ele>
        <time>2015-04-12T07:35:03Z</time>
      </trkpt>
      <trkpt lat="50.10968" lon="3.60025">
        <ele>148.66</ele>
        <time>2015-04-12T07:35:19Z</time>
      </trkpt>
      <trkpt lat="50.11027" lon="3.59988">
        <ele>149.62</ele>
        <time>2015-04-12T07:35:35Z</time>
      </trkpt>
      <trkpt lat="50.11079" lon="3.59933">
        <ele>148.66</ele>
        <time>2015-04-12T07:35:49Z</time>
      </trkpt>
      <trkpt lat="50.11087" lon="3.59925">
        <ele>148.18</ele>
        <time>2015-04-12T07:35:51Z</time>
      </trkpt>
      <trkpt lat="50.11091" lon="3.59923">
        <ele>148.18</ele>
        <time>2015-04-12T07:35:52Z</time>
      </trkpt>
      <trkpt lat="50.11095" lon="3.59923">
        <ele>148.18</ele>
        <time>2015-04-12T07:35:53Z</time>
      </trkpt>
      <trkpt lat="50.11099" lon="3.59925">
        <ele>148.18</ele>
        <time>2015-04-12T07:35:54Z</time>
      </trkpt>
      <trkpt lat="50.11102" lon="3.59929">
        <ele>148.18</ele>
        <time>2015-04-12T07:35:55Z</time>
      </trkpt>
      <trkpt lat="50.11106" lon="3.59933">
        <ele>148.18</ele>
        <time>2015-04-12T07:35:56Z</time>
      </trkpt>
      <trkpt lat="50.1111" lon="3.59939">
        <ele>148.18</ele>
        <time>2015-04-12T07:35:57Z</time>
      </trkpt>
      <trkpt lat="50.11113" lon="3.59945">
        <ele>148.18</ele>
        <time>2015-04-12T07:35:58Z</time>
      </trkpt>
      <trkpt lat="50.11169" lon="3.60052">
        <ele>150.1</ele>
        <time>2015-04-12T07:36:17Z</time>
      </trkpt>
      <trkpt lat="50.1117" lon="3.60069">
        <ele>150.1</ele>
        <time>2015-04-12T07:36:29Z</time>
      </trkpt>
      <trkpt lat="50.11163" lon="3.60066">
        <ele>150.58</ele>
        <time>2015-04-12T07:36:56Z</time>
      </trkpt>
      <trkpt lat="50.11162" lon="3.60064">
        <ele>150.58</ele>
        <time>2015-04-12T07:37:29Z</time>
      </trkpt>
      <trkpt lat="50.11165" lon="3.60067">
        <ele>150.58</ele>
        <time>2015-04-12T07:38:17Z</time>
      </trkpt>
      <trkpt lat="50.11164" lon="3.60064">
        <ele>150.58</ele>
        <time>2015-04-12T07:38:56Z</time>
      </trkpt>
      <trkpt lat="50.11164" lon="3.60066">
        <ele>150.58</ele>
        <time>2015-04-12T07:39:34Z</time>
      </trkpt>
      <trkpt lat="50.11165" lon="3.60063">
        <ele>150.58</ele>
        <time>2015-04-12T07:40:02Z</time>
      </trkpt>
      <trkpt lat="50.11163" lon="3.60066">
        <ele>150.58</ele>
        <time>2015-04-12T07:40:13Z</time>
      </trkpt>
      <trkpt lat="50.11156" lon="3.60082">
        <ele>150.58</ele>
        <time>2015-04-12T07:40:22Z</time>
      </trkpt>
      <trkpt lat="50.11155" lon="3.60082">
        <ele>150.58</ele>
        <time>2015-04-12T07:40:24Z</time>
      </trkpt>
      <trkpt lat="50.11124" lon="3.60115">
        <ele>151.54</ele>
        <time>2015-04-12T07:40:38Z</time>
      </trkpt>
      <trkpt lat="50.11093" lon="3.60194">
        <ele>152.03</ele>
        <time>2015-04-12T07:40:54Z</time>
      </trkpt>
      <trkpt lat="50.11048" lon="3.60283">
        <ele>152.51</ele>
        <time>2015-04-12T07:41:14Z</time>
      </trkpt>
      <trkpt lat="50.10986" lon="3.60317">
        <ele>149.62</ele>
        <time>2015-04-12T07:41:31Z</time>
      </trkpt>
      <trkpt lat="50.10917" lon="3.60286">
        <ele>146.74</ele>
        <time>2015-04-12T07:41:45Z</time>
      </trkpt>
      <trkpt lat="50.10834" lon="3.60269">
        <ele>143.85</ele>
        <time>2015-04-12T07:41:57Z</time>
      </trkpt>
      <trkpt lat="50.10827" lon="3.60272">
        <ele>143.85</ele>
        <time>2015-04-12T07:41:58Z</time>
      </trkpt>
      <trkpt lat="50.10821" lon="3.60276">
        <ele>143.85</ele>
        <time>2015-04-12T07:41:59Z</time>
      </trkpt>
      <trkpt lat="50.10816" lon="3.6028">
        <ele>143.37</ele>
        <time>2015-04-12T07:42:00Z</time>
      </trkpt>
      <trkpt lat="50.1081" lon="3.60286">
        <ele>143.37</ele>
        <time>2015-04-12T07:42:01Z</time>
      </trkpt>
      <trkpt lat="50.10804" lon="3.60292">
        <ele>143.37</ele>
        <time>2015-04-12T07:42:02Z</time>
      </trkpt>
      <trkpt lat="50.10799" lon="3.60299">
        <ele>142.89</ele>
        <time>2015-04-12T07:42:03Z</time>
      </trkpt>
      <trkpt lat="50.10752" lon="3.60373">
        <ele>142.41</ele>
        <time>2015-04-12T07:42:18Z</time>
      </trkpt>
      <trkpt lat="50.10706" lon="3.60469">
        <ele>142.41</ele>
        <time>2015-04-12T07:42:36Z</time>
      </trkpt>
      <trkpt lat="50.10645" lon="3.60621">
        <ele>141.45</ele>
        <time>2015-04-12T07:42:59Z</time>
      </trkpt>
      <trkpt lat="50.10601" lon="3.60773">
        <ele>140.97</ele>
        <time>2015-04-12T07:43:19Z</time>
      </trkpt>
      <trkpt lat="50.10573" lon="3.60885">
        <ele>140.97</ele>
        <time>2015-04-12T07:43:41Z</time>
      </trkpt>
      <trkpt lat="50.10563" lon="3.60902">
        <ele>140.97</ele>
        <time>2015-04-12T07:43:43Z</time>
      </trkpt>
      <trkpt lat="50.10558" lon="3.60904">
        <ele>140.97</ele>
        <time>2015-04-12T07:43:44Z</time>
      </trkpt>
      <trkpt lat="50.10507" lon="3.60874">
        <ele>142.41</ele>
        <time>2015-04-12T07:44:00Z</time>
      </trkpt>
      <trkpt lat="50.1046" lon="3.60822">
        <ele>143.85</ele>
        <time>2015-04-12T07:44:23Z</time>
      </trkpt>
      <trkpt lat="50.10456" lon="3.60785">
        <ele>144.34</ele>
        <time>2015-04-12T07:44:41Z</time>
      </trkpt>
      <trkpt lat="50.10457" lon="3.6078">
        <ele>144.34</ele>
        <time>2015-04-12T07:44:44Z</time>
      </trkpt>
      <trkpt lat="50.10458" lon="3.60778">
        <ele>144.34</ele>
        <time>2015-04-12T07:44:45Z</time>
      </trkpt>
      <trkpt lat="50.10459" lon="3.60777">
        <ele>144.34</ele>
        <time>2015-04-12T07:44:46Z</time>
      </trkpt>
      <trkpt lat="50.10461" lon="3.60775">
        <ele>144.34</ele>
        <time>2015-04-12T07:44:47Z</time>
      </trkpt>
      <trkpt lat="50.10463" lon="3.60773">
        <ele>144.34</ele>
        <time>2015-04-12T07:44:48Z</time>
      </trkpt>
      <trkpt lat="50.10498" lon="3.60708">
        <ele>145.3</ele>
        <time>2015-04-12T07:45:12Z</time>
      </trkpt>
      <trkpt lat="50.10515" lon="3.60629">
        <ele>146.74</ele>
        <time>2015-04-12T07:45:32Z</time>
      </trkpt>
      <trkpt lat="50.10495" lon="3.60578">
        <ele>148.18</ele>
        <time>2015-04-12T07:45:54Z</time>
      </trkpt>
      <trkpt lat="50.10467" lon="3.60508">
        <ele>149.62</ele>
        <time>2015-04-12T07:46:17Z</time>
      </trkpt>
      <trkpt lat="50.10419" lon="3.60424">
        <ele>150.1</ele>
        <time>2015-04-12T07:46:41Z</time>
      </trkpt>
      <trkpt lat="50.10372" lon="3.60344">
        <ele>150.58</ele>
        <time>2015-04-12T07:47:01Z</time>
      </trkpt>
      <trkpt lat="50.10334" lon="3.60332">
        <ele>150.58</ele>
        <time>2015-04-12T07:47:13Z</time>
      </trkpt>
      <trkpt lat="50.10317" lon="3.60335">
        <ele>149.14</ele>
        <time>2015-04-12T07:47:17Z</time>
      </trkpt>
      <trkpt lat="50.10284" lon="3.6035">
        <ele>146.26</ele>
        <time>2015-04-12T07:47:29Z</time>
      </trkpt>
      <trkpt lat="50.10283" lon="3.60348">
        <ele>147.22</ele>
        <time>2015-04-12T07:47:30Z</time>
      </trkpt>
      <trkpt lat="50.10265" lon="3.60285">
        <ele>148.18</ele>
        <time>2015-04-12T07:47:44Z</time>
      </trkpt>
      <trkpt lat="50.10244" lon="3.60249">
        <ele>146.74</ele>
        <time>2015-04-12T07:47:54Z</time>
      </trkpt>
      <trkpt lat="50.10159" lon="3.60185">
        <ele>143.37</ele>
        <time>2015-04-12T07:48:10Z</time>
      </trkpt>
      <trkpt lat="50.10116" lon="3.60085">
        <ele>140.49</ele>
        <time>2015-04-12T07:48:26Z</time>
      </trkpt>
      <trkpt lat="50.10074" lon="3.6002">
        <ele>137.61</ele>
        <time>2015-04-12T07:48:40Z</time>
      </trkpt>
      <trkpt lat="50.10039" lon="3.60002">
        <ele>135.68</ele>
        <time>2015-04-12T07:48:47Z</time>
      </trkpt>
      <trkpt lat="50.1003" lon="3.59998">
        <ele>135.68</ele>
        <time>2015-04-12T07:48:48Z</time>
      </trkpt>
      <trkpt lat="50.10021" lon="3.59997">
        <ele>135.68</ele>
        <time>2015-04-12T07:48:49Z</time>
      </trkpt>
      <trkpt lat="50.10013" lon="3.59996">
        <ele>135.68</ele>
        <time>2015-04-12T07:48:50Z</time>
      </trkpt>
      <trkpt lat="50.10004" lon="3.59995">
        <ele>135.2</ele>
        <time>2015-04-12T07:48:51Z</time>
      </trkpt>
      <trkpt lat="50.09997" lon="3.59995">
        <ele>135.2</ele>
        <time>2015-04-12T07:48:52Z</time>
      </trkpt>
      <trkpt lat="50.09993" lon="3.59997">
        <ele>134.72</ele>
        <time>2015-04-12T07:48:53Z</time>
      </trkpt>
      <trkpt lat="50.09988" lon="3.59999">
        <ele>134.72</ele>
        <time>2015-04-12T07:48:54Z</time>
      </trkpt>
      <trkpt lat="50.09984" lon="3.60002">
        <ele>134.72</ele>
        <time>2015-04-12T07:48:55Z</time>
      </trkpt>
      <trkpt lat="50.0998" lon="3.60005">
        <ele>134.72</ele>
        <time>2015-04-12T07:48:56Z</time>
      </trkpt>
      <trkpt lat="50.09923" lon="3.60082">
        <ele>134.72</ele>
        <time>2015-04-12T07:49:14Z</time>
      </trkpt>
      <trkpt lat="50.09907" lon="3.60136">
        <ele>137.61</ele>
        <time>2015-04-12T07:49:28Z</time>
      </trkpt>
      <trkpt lat="50.09914" lon="3.60237">
        <ele>140.97</ele>
        <time>2015-04-12T07:49:51Z</time>
      </trkpt>
      <trkpt lat="50.09915" lon="3.60305">
        <ele>142.89</ele>
        <time>2015-04-12T07:50:10Z</time>
      </trkpt>
      <trkpt lat="50.09904" lon="3.60338">
        <ele>143.85</ele>
        <time>2015-04-12T07:50:21Z</time>
      </trkpt>
      <trkpt lat="50.09905" lon="3.60407">
        <ele>145.78</ele>
        <time>2015-04-12T07:50:38Z</time>
      </trkpt>
      <trkpt lat="50.09892" lon="3.60447">
        <ele>147.22</ele>
        <time>2015-04-12T07:50:51Z</time>
      </trkpt>
      <trkpt lat="50.09852" lon="3.60501">
        <ele>148.66</ele>
        <time>2015-04-12T07:51:10Z</time>
      </trkpt>
      <trkpt lat="50.09793" lon="3.60537">
        <ele>148.18</ele>
        <time>2015-04-12T07:51:27Z</time>
      </trkpt>
      <trkpt lat="50.09755" lon="3.606">
        <ele>148.66</ele>
        <time>2015-04-12T07:51:45Z</time>
      </trkpt>
      <trkpt lat="50.09751" lon="3.6061">
        <ele>149.62</ele>
        <time>2015-04-12T07:51:48Z</time>
      </trkpt>
      <trkpt lat="50.09725" lon="3.60681">
        <ele>150.58</ele>
        <time>2015-04-12T07:52:08Z</time>
      </trkpt>
      <trkpt lat="50.09713" lon="3.60777">
        <ele>151.06</ele>
        <time>2015-04-12T07:52:26Z</time>
      </trkpt>
      <trkpt lat="50.09679" lon="3.60855">
        <ele>148.66</ele>
        <time>2015-04-12T07:52:42Z</time>
      </trkpt>
      <trkpt lat="50.09616" lon="3.60895">
        <ele>145.78</ele>
        <time>2015-04-12T07:52:54Z</time>
      </trkpt>
      <trkpt lat="50.09589" lon="3.60944">
        <ele>145.78</ele>
        <time>2015-04-12T07:53:07Z</time>
      </trkpt>
      <trkpt lat="50.09588" lon="3.60975">
        <ele>146.74</ele>
        <time>2015-04-12T07:53:14Z</time>
      </trkpt>
      <trkpt lat="50.09591" lon="3.61052">
        <ele>151.06</ele>
        <time>2015-04-12T07:53:33Z</time>
      </trkpt>
      <trkpt lat="50.09592" lon="3.61054">
        <ele>151.06</ele>
        <time>2015-04-12T07:53:34Z</time>
      </trkpt>
      <trkpt lat="50.09596" lon="3.61067">
        <ele>151.06</ele>
        <time>2015-04-12T07:53:40Z</time>
      </trkpt>
      <trkpt lat="50.09635" lon="3.61167">
        <ele>152.03</ele>
        <time>2015-04-12T07:54:01Z</time>
      </trkpt>
      <trkpt lat="50.09666" lon="3.61261">
        <ele>152.51</ele>
        <time>2015-04-12T07:54:25Z</time>
      </trkpt>
      <trkpt lat="50.09701" lon="3.61366">
        <ele>152.51</ele>
        <time>2015-04-12T07:54:51Z</time>
      </trkpt>
      <trkpt lat="50.09743" lon="3.61485">
        <ele>152.99</ele>
        <time>2015-04-12T07:55:15Z</time>
      </trkpt>
      <trkpt lat="50.09758" lon="3.6148">
        <ele>153.47</ele>
        <time>2015-04-12T07:55:25Z</time>
      </trkpt>
      <trkpt lat="50.09797" lon="3.61431">
        <ele>153.47</ele>
        <time>2015-04-12T07:55:43Z</time>
      </trkpt>
      <trkpt lat="50.09821" lon="3.61335">
        <ele>151.06</ele>
        <time>2015-04-12T07:56:00Z</time>
      </trkpt>
      <trkpt lat="50.09842" lon="3.61261">
        <ele>151.54</ele>
        <time>2015-04-12T07:56:17Z</time>
      </trkpt>
      <trkpt lat="50.0987" lon="3.61212">
        <ele>154.43</ele>
        <time>2015-04-12T07:56:35Z</time>
      </trkpt>
      <trkpt lat="50.09933" lon="3.61195">
        <ele>154.43</ele>
        <time>2015-04-12T07:56:57Z</time>
      </trkpt>
      <trkpt lat="50.09975" lon="3.61205">
        <ele>151.54</ele>
        <time>2015-04-12T07:57:13Z</time>
      </trkpt>
      <trkpt lat="50.0999" lon="3.6129">
        <ele>151.06</ele>
        <time>2015-04-12T07:57:30Z</time>
      </trkpt>
      <trkpt lat="50.09995" lon="3.61362">
        <ele>152.51</ele>
        <time>2015-04-12T07:57:38Z</time>
      </trkpt>
      <trkpt lat="50.09994" lon="3.6145">
        <ele>153.47</ele>
        <time>2015-04-12T07:57:57Z</time>
      </trkpt>
      <trkpt lat="50.09999" lon="3.61551">
        <ele>155.39</ele>
        <time>2015-04-12T07:58:21Z</time>
      </trkpt>
      <trkpt lat="50.10008" lon="3.6163">
        <ele>154.43</ele>
        <time>2015-04-12T07:58:39Z</time>
      </trkpt>
      <trkpt lat="50.1003" lon="3.61773">
        <ele>151.54</ele>
        <time>2015-04-12T07:59:01Z</time>
      </trkpt>
      <trkpt lat="50.10048" lon="3.61892">
        <ele>151.06</ele>
        <time>2015-04-12T07:59:18Z</time>
      </trkpt>
      <trkpt lat="50.10082" lon="3.62064">
        <ele>151.06</ele>
        <time>2015-04-12T07:59:41Z</time>
      </trkpt>
      <trkpt lat="50.10107" lon="3.62177">
        <ele>151.06</ele>
        <time>2015-04-12T08:00:00Z</time>
      </trkpt>
      <trkpt lat="50.10107" lon="3.62242">
        <ele>150.58</ele>
        <time>2015-04-12T08:00:10Z</time>
      </trkpt>
      <trkpt lat="50.10108" lon="3.62249">
        <ele>150.58</ele>
        <time>2015-04-12T08:00:11Z</time>
      </trkpt>
      <trkpt lat="50.10108" lon="3.62255">
        <ele>150.58</ele>
        <time>2015-04-12T08:00:12Z</time>
      </trkpt>
      <trkpt lat="50.1011" lon="3.6226">
        <ele>150.58</ele>
        <time>2015-04-12T08:00:13Z</time>
      </trkpt>
      <trkpt lat="50.10112" lon="3.62266">
        <ele>150.58</ele>
        <time>2015-04-12T08:00:14Z</time>
      </trkpt>
      <trkpt lat="50.10114" lon="3.62272">
        <ele>150.58</ele>
        <time>2015-04-12T08:00:15Z</time>
      </trkpt>
      <trkpt lat="50.10185" lon="3.62409">
        <ele>150.1</ele>
        <time>2015-04-12T08:00:38Z</time>
      </trkpt>
      <trkpt lat="50.10272" lon="3.62564">
        <ele>149.62</ele>
        <time>2015-04-12T08:00:59Z</time>
      </trkpt>
      <trkpt lat="50.1035" lon="3.62666">
        <ele>149.62</ele>
        <time>2015-04-12T08:01:16Z</time>
      </trkpt>
      <trkpt lat="50.10355" lon="3.62668">
        <ele>149.62</ele>
        <time>2015-04-12T08:01:17Z</time>
      </trkpt>
      <trkpt lat="50.10362" lon="3.62668">
        <ele>149.62</ele>
        <time>2015-04-12T08:01:18Z</time>
      </trkpt>
      <trkpt lat="50.10367" lon="3.62665">
        <ele>149.62</ele>
        <time>2015-04-12T08:01:19Z</time>
      </trkpt>
      <trkpt lat="50.10372" lon="3.6266">
        <ele>149.62</ele>
        <time>2015-04-12T08:01:20Z</time>
      </trkpt>
      <trkpt lat="50.10378" lon="3.62655">
        <ele>149.62</ele>
        <time>2015-04-12T08:01:21Z</time>
      </trkpt>
      <trkpt lat="50.10383" lon="3.62649">
        <ele>150.58</ele>
        <time>2015-04-12T08:01:22Z</time>
      </trkpt>
      <trkpt lat="50.10448" lon="3.62573">
        <ele>149.14</ele>
        <time>2015-04-12T08:01:35Z</time>
      </trkpt>
      <trkpt lat="50.10558" lon="3.62448">
        <ele>146.74</ele>
        <time>2015-04-12T08:01:58Z</time>
      </trkpt>
      <trkpt lat="50.10608" lon="3.62362">
        <ele>146.74</ele>
        <time>2015-04-12T08:02:14Z</time>
      </trkpt>
      <trkpt lat="50.10662" lon="3.62246">
        <ele>149.62</ele>
        <time>2015-04-12T08:02:35Z</time>
      </trkpt>
      <trkpt lat="50.10713" lon="3.62154">
        <ele>150.58</ele>
        <time>2015-04-12T08:02:55Z</time>
      </trkpt>
      <trkpt lat="50.10742" lon="3.62201">
        <ele>150.58</ele>
        <time>2015-04-12T08:03:06Z</time>
      </trkpt>
      <trkpt lat="50.10792" lon="3.62251">
        <ele>149.14</ele>
        <time>2015-04-12T08:03:18Z</time>
      </trkpt>
      <trkpt lat="50.10857" lon="3.62242">
        <ele>146.74</ele>
        <time>2015-04-12T08:03:34Z</time>
      </trkpt>
      <trkpt lat="50.1092" lon="3.62245">
        <ele>143.37</ele>
        <time>2015-04-12T08:03:48Z</time>
      </trkpt>
      <trkpt lat="50.10984" lon="3.62253">
        <ele>140.49</ele>
        <time>2015-04-12T08:04:04Z</time>
      </trkpt>
      <trkpt lat="50.11009" lon="3.6224">
        <ele>140.49</ele>
        <time>2015-04-12T08:04:17Z</time>
      </trkpt>
      <trkpt lat="50.11009" lon="3.62235">
        <ele>140.49</ele>
        <time>2015-04-12T08:04:18Z</time>
      </trkpt>
      <trkpt lat="50.11009" lon="3.62231">
        <ele>140.49</ele>
        <time>2015-04-12T08:04:19Z</time>
      </trkpt>
      <trkpt lat="50.11016" lon="3.62201">
        <ele>139.53</ele>
        <time>2015-04-12T08:04:34Z</time>
      </trkpt>
      <trkpt lat="50.11017" lon="3.62204">
        <ele>139.53</ele>
        <time>2015-04-12T08:04:35Z</time>
      </trkpt>
      <trkpt lat="50.11058" lon="3.62274">
        <ele>139.53</ele>
        <time>2015-04-12T08:04:52Z</time>
      </trkpt>
      <trkpt lat="50.1106" lon="3.6236">
        <ele>139.53</ele>
        <time>2015-04-12T08:05:12Z</time>
      </trkpt>
      <trkpt lat="50.11046" lon="3.62463">
        <ele>139.53</ele>
        <time>2015-04-12T08:05:33Z</time>
      </trkpt>
      <trkpt lat="50.11032" lon="3.62559">
        <ele>139.05</ele>
        <time>2015-04-12T08:05:55Z</time>
      </trkpt>
      <trkpt lat="50.11011" lon="3.62665">
        <ele>139.05</ele>
        <time>2015-04-12T08:06:18Z</time>
      </trkpt>
      <trkpt lat="50.11006" lon="3.62697">
        <ele>139.05</ele>
        <time>2015-04-12T08:06:31Z</time>
      </trkpt>
      <trkpt lat="50.11038" lon="3.62807">
        <ele>139.05</ele>
        <time>2015-04-12T08:06:52Z</time>
      </trkpt>
      <trkpt lat="50.11046" lon="3.62916">
        <ele>139.53</ele>
        <time>2015-04-12T08:07:10Z</time>
      </trkpt>
      <trkpt lat="50.11044" lon="3.62926">
        <ele>143.37</ele>
        <time>2015-04-12T08:07:13Z</time>
      </trkpt>
      <trkpt lat="50.11044" lon="3.62929">
        <ele>139.53</ele>
        <time>2015-04-12T08:07:14Z</time>
      </trkpt>
      <trkpt lat="50.11026" lon="3.63045">
        <ele>139.53</ele>
        <time>2015-04-12T08:07:35Z</time>
      </trkpt>
      <trkpt lat="50.11019" lon="3.63178">
        <ele>138.09</ele>
        <time>2015-04-12T08:07:51Z</time>
      </trkpt>
      <trkpt lat="50.11013" lon="3.63285">
        <ele>140.01</ele>
        <time>2015-04-12T08:08:09Z</time>
      </trkpt>
      <trkpt lat="50.11021" lon="3.63282">
        <ele>140.97</ele>
        <time>2015-04-12T08:08:19Z</time>
      </trkpt>
      <trkpt lat="50.1106" lon="3.63201">
        <ele>141.93</ele>
        <time>2015-04-12T08:08:37Z</time>
      </trkpt>
      <trkpt lat="50.11106" lon="3.63115">
        <ele>143.37</ele>
        <time>2015-04-12T08:09:01Z</time>
      </trkpt>
      <trkpt lat="50.11148" lon="3.63034">
        <ele>144.34</ele>
        <time>2015-04-12T08:09:25Z</time>
      </trkpt>
      <trkpt lat="50.11202" lon="3.62953">
        <ele>142.89</ele>
        <time>2015-04-12T08:09:46Z</time>
      </trkpt>
      <trkpt lat="50.11242" lon="3.62862">
        <ele>139.53</ele>
        <time>2015-04-12T08:09:59Z</time>
      </trkpt>
      <trkpt lat="50.11278" lon="3.62782">
        <ele>138.57</ele>
        <time>2015-04-12T08:10:14Z</time>
      </trkpt>
      <trkpt lat="50.11271" lon="3.62782">
        <ele>138.57</ele>
        <time>2015-04-12T08:10:31Z</time>
      </trkpt>
      <trkpt lat="50.11277" lon="3.62791">
        <ele>138.57</ele>
        <time>2015-04-12T08:10:55Z</time>
      </trkpt>
      <trkpt lat="50.11297" lon="3.62764">
        <ele>138.57</ele>
        <time>2015-04-12T08:11:17Z</time>
      </trkpt>
      <trkpt lat="50.11299" lon="3.62758">
        <ele>138.57</ele>
        <time>2015-04-12T08:11:20Z</time>
      </trkpt>
      <trkpt lat="50.11301" lon="3.62755">
        <ele>138.57</ele>
        <time>2015-04-12T08:11:21Z</time>
      </trkpt>
      <trkpt lat="50.11334" lon="3.62698">
        <ele>140.97</ele>
        <time>2015-04-12T08:11:46Z</time>
      </trkpt>
      <trkpt lat="50.11364" lon="3.62626">
        <ele>141.45</ele>
        <time>2015-04-12T08:12:08Z</time>
      </trkpt>
      <trkpt lat="50.114" lon="3.62559">
        <ele>140.01</ele>
        <time>2015-04-12T08:12:27Z</time>
      </trkpt>
      <trkpt lat="50.11459" lon="3.62453">
        <ele>140.49</ele>
        <time>2015-04-12T08:12:48Z</time>
      </trkpt>
      <trkpt lat="50.11465" lon="3.6244">
        <ele>141.93</ele>
        <time>2015-04-12T08:12:51Z</time>
      </trkpt>
      <trkpt lat="50.11492" lon="3.62401">
        <ele>144.82</ele>
        <time>2015-04-12T08:13:03Z</time>
      </trkpt>
      <trkpt lat="50.11522" lon="3.62361">
        <ele>146.74</ele>
        <time>2015-04-12T08:13:22Z</time>
      </trkpt>
      <trkpt lat="50.11535" lon="3.62368">
        <ele>147.22</ele>
        <time>2015-04-12T08:13:32Z</time>
      </trkpt>
      <trkpt lat="50.11594" lon="3.62334">
        <ele>147.22</ele>
        <time>2015-04-12T08:13:51Z</time>
      </trkpt>
      <trkpt lat="50.1167" lon="3.6223">
        <ele>147.7</ele>
        <time>2015-04-12T08:14:12Z</time>
      </trkpt>
      <trkpt lat="50.11729" lon="3.62146">
        <ele>149.14</ele>
        <time>2015-04-12T08:14:30Z</time>
      </trkpt>
      <trkpt lat="50.11808" lon="3.62111">
        <ele>152.03</ele>
        <time>2015-04-12T08:14:50Z</time>
      </trkpt>
      <trkpt lat="50.11862" lon="3.62073">
        <ele>153.95</ele>
        <time>2015-04-12T08:15:07Z</time>
      </trkpt>
      <trkpt lat="50.11916" lon="3.62043">
        <ele>156.35</ele>
        <time>2015-04-12T08:15:29Z</time>
      </trkpt>
      <trkpt lat="50.11984" lon="3.61995">
        <ele>157.79</ele>
        <time>2015-04-12T08:15:50Z</time>
      </trkpt>
      <trkpt lat="50.12039" lon="3.61986">
        <ele>159.24</ele>
        <time>2015-04-12T08:16:07Z</time>
      </trkpt>
      <trkpt lat="50.12049" lon="3.62049">
        <ele>159.72</ele>
        <time>2015-04-12T08:16:19Z</time>
      </trkpt>
      <trkpt lat="50.12096" lon="3.62102">
        <ele>159.72</ele>
        <time>2015-04-12T08:16:32Z</time>
      </trkpt>
      <trkpt lat="50.12105" lon="3.62111">
        <ele>158.27</ele>
        <time>2015-04-12T08:16:34Z</time>
      </trkpt>
      <trkpt lat="50.1216" lon="3.62169">
        <ele>154.43</ele>
        <time>2015-04-12T08:16:45Z</time>
      </trkpt>
      <trkpt lat="50.12267" lon="3.6228">
        <ele>156.83</ele>
        <time>2015-04-12T08:17:02Z</time>
      </trkpt>
      <trkpt lat="50.12371" lon="3.62398">
        <ele>157.31</ele>
        <time>2015-04-12T08:17:24Z</time>
      </trkpt>
      <trkpt lat="50.12429" lon="3.62464">
        <ele>154.43</ele>
        <time>2015-04-12T08:17:34Z</time>
      </trkpt>
      <trkpt lat="50.12479" lon="3.62515">
        <ele>157.31</ele>
        <time>2015-04-12T08:17:42Z</time>
      </trkpt>
      <trkpt lat="50.12532" lon="3.62573">
        <ele>160.2</ele>
        <time>2015-04-12T08:17:56Z</time>
      </trkpt>
      <trkpt lat="50.12591" lon="3.62639">
        <ele>163.56</ele>
        <time>2015-04-12T08:18:17Z</time>
      </trkpt>
      <trkpt lat="50.12655" lon="3.62709">
        <ele>165.48</ele>
        <time>2015-04-12T08:18:41Z</time>
      </trkpt>
      <trkpt lat="50.12689" lon="3.62746">
        <ele>165.48</ele>
        <time>2015-04-12T08:18:58Z</time>
      </trkpt>
      <trkpt lat="50.12721" lon="3.6277">
        <ele>165.96</ele>
        <time>2015-04-12T08:19:14Z</time>
      </trkpt>
      <trkpt lat="50.12746" lon="3.62699">
        <ele>166.93</ele>
        <time>2015-04-12T08:19:31Z</time>
      </trkpt>
      <trkpt lat="50.12747" lon="3.62635">
        <ele>166.93</ele>
        <time>2015-04-12T08:19:48Z</time>
      </trkpt>
      <trkpt lat="50.12722" lon="3.62549">
        <ele>165.48</ele>
        <time>2015-04-12T08:20:04Z</time>
      </trkpt>
      <trkpt lat="50.12728" lon="3.62437">
        <ele>164.52</ele>
        <time>2015-04-12T08:20:26Z</time>
      </trkpt>
      <trkpt lat="50.12743" lon="3.62353">
        <ele>164.04</ele>
        <time>2015-04-12T08:20:48Z</time>
      </trkpt>
      <trkpt lat="50.1276" lon="3.62262">
        <ele>164.04</ele>
        <time>2015-04-12T08:21:10Z</time>
      </trkpt>
      <trkpt lat="50.12776" lon="3.62193">
        <ele>165.48</ele>
        <time>2015-04-12T08:21:34Z</time>
      </trkpt>
      <trkpt lat="50.12785" lon="3.62136">
        <ele>165.48</ele>
        <time>2015-04-12T08:21:54Z</time>
      </trkpt>
      <trkpt lat="50.12799" lon="3.62047">
        <ele>165.96</ele>
        <time>2015-04-12T08:22:15Z</time>
      </trkpt>
      <trkpt lat="50.12809" lon="3.6197">
        <ele>165.96</ele>
        <time>2015-04-12T08:22:34Z</time>
      </trkpt>
      <trkpt lat="50.12829" lon="3.61836">
        <ele>164.04</ele>
        <time>2015-04-12T08:22:58Z</time>
      </trkpt>
      <trkpt lat="50.12843" lon="3.61674">
        <ele>163.56</ele>
        <time>2015-04-12T08:23:22Z</time>
      </trkpt>
      <trkpt lat="50.12859" lon="3.61568">
        <ele>163.56</ele>
        <time>2015-04-12T08:23:41Z</time>
      </trkpt>
      <trkpt lat="50.12873" lon="3.61466">
        <ele>163.56</ele>
        <time>2015-04-12T08:24:01Z</time>
      </trkpt>
      <trkpt lat="50.12894" lon="3.61438">
        <ele>162.6</ele>
        <time>2015-04-12T08:24:19Z</time>
      </trkpt>
      <trkpt lat="50.12904" lon="3.61436">
        <ele>163.56</ele>
        <time>2015-04-12T08:24:39Z</time>
      </trkpt>
      <trkpt lat="50.12909" lon="3.61423">
        <ele>162.6</ele>
        <time>2015-04-12T08:24:43Z</time>
      </trkpt>
      <trkpt lat="50.12946" lon="3.61361">
        <ele>161.64</ele>
        <time>2015-04-12T08:25:04Z</time>
      </trkpt>
      <trkpt lat="50.12981" lon="3.61315">
        <ele>161.16</ele>
        <time>2015-04-12T08:25:23Z</time>
      </trkpt>
      <trkpt lat="50.13034" lon="3.6124">
        <ele>158.75</ele>
        <time>2015-04-12T08:25:41Z</time>
      </trkpt>
      <trkpt lat="50.13049" lon="3.61218">
        <ele>158.75</ele>
        <time>2015-04-12T08:25:57Z</time>
      </trkpt>
      <trkpt lat="50.13056" lon="3.61165">
        <ele>158.27</ele>
        <time>2015-04-12T08:26:14Z</time>
      </trkpt>
      <trkpt lat="50.1302" lon="3.61072">
        <ele>158.27</ele>
        <time>2015-04-12T08:26:36Z</time>
      </trkpt>
      <trkpt lat="50.12986" lon="3.60979">
        <ele>158.27</ele>
        <time>2015-04-12T08:26:50Z</time>
      </trkpt>
      <trkpt lat="50.12983" lon="3.60972">
        <ele>158.27</ele>
        <time>2015-04-12T08:26:51Z</time>
      </trkpt>
      <trkpt lat="50.1298" lon="3.60966">
        <ele>158.27</ele>
        <time>2015-04-12T08:26:52Z</time>
      </trkpt>
      <trkpt lat="50.12978" lon="3.6096">
        <ele>158.27</ele>
        <time>2015-04-12T08:26:53Z</time>
      </trkpt>
      <trkpt lat="50.12976" lon="3.60953">
        <ele>158.27</ele>
        <time>2015-04-12T08:26:54Z</time>
      </trkpt>
      <trkpt lat="50.12974" lon="3.60946">
        <ele>158.27</ele>
        <time>2015-04-12T08:26:55Z</time>
      </trkpt>
      <trkpt lat="50.12971" lon="3.6094">
        <ele>157.79</ele>
        <time>2015-04-12T08:26:56Z</time>
      </trkpt>
      <trkpt lat="50.12968" lon="3.60935">
        <ele>157.79</ele>
        <time>2015-04-12T08:26:57Z</time>
      </trkpt>
      <trkpt lat="50.12965" lon="3.60929">
        <ele>157.31</ele>
        <time>2015-04-12T08:26:58Z</time>
      </trkpt>
      <trkpt lat="50.12962" lon="3.60923">
        <ele>157.31</ele>
        <time>2015-04-12T08:26:59Z</time>
      </trkpt>
      <trkpt lat="50.1296" lon="3.60916">
        <ele>157.31</ele>
        <time>2015-04-12T08:27:00Z</time>
      </trkpt>
      <trkpt lat="50.12958" lon="3.6091">
        <ele>156.83</ele>
        <time>2015-04-12T08:27:01Z</time>
      </trkpt>
      <trkpt lat="50.12949" lon="3.60884">
        <ele>155.87</ele>
        <time>2015-04-12T08:27:05Z</time>
      </trkpt>
      <trkpt lat="50.12947" lon="3.60879">
        <ele>155.39</ele>
        <time>2015-04-12T08:27:06Z</time>
      </trkpt>
      <trkpt lat="50.12945" lon="3.60873">
        <ele>155.39</ele>
        <time>2015-04-12T08:27:07Z</time>
      </trkpt>
      <trkpt lat="50.12942" lon="3.60867">
        <ele>154.43</ele>
        <time>2015-04-12T08:27:08Z</time>
      </trkpt>
      <trkpt lat="50.12939" lon="3.60861">
        <ele>154.43</ele>
        <time>2015-04-12T08:27:09Z</time>
      </trkpt>
      <trkpt lat="50.12922" lon="3.60821">
        <ele>152.99</ele>
        <time>2015-04-12T08:27:17Z</time>
      </trkpt>
      <trkpt lat="50.12906" lon="3.60791">
        <ele>152.99</ele>
        <time>2015-04-12T08:27:26Z</time>
      </trkpt>
      <trkpt lat="50.12904" lon="3.60792">
        <ele>152.99</ele>
        <time>2015-04-12T08:27:28Z</time>
      </trkpt>
      <trkpt lat="50.12904" lon="3.60795">
        <ele>152.99</ele>
        <time>2015-04-12T08:27:29Z</time>
      </trkpt>
      <trkpt lat="50.12904" lon="3.60799">
        <ele>152.99</ele>
        <time>2015-04-12T08:27:30Z</time>
      </trkpt>
      <trkpt lat="50.12902" lon="3.60812">
        <ele>152.99</ele>
        <time>2015-04-12T08:27:33Z</time>
      </trkpt>
      <trkpt lat="50.129" lon="3.60816">
        <ele>152.99</ele>
        <time>2015-04-12T08:27:34Z</time>
      </trkpt>
      <trkpt lat="50.12897" lon="3.60819">
        <ele>152.99</ele>
        <time>2015-04-12T08:27:35Z</time>
      </trkpt>
      <trkpt lat="50.1286" lon="3.60874">
        <ele>152.99</ele>
        <time>2015-04-12T08:27:47Z</time>
      </trkpt>
      <trkpt lat="50.12856" lon="3.6088">
        <ele>152.99</ele>
        <time>2015-04-12T08:27:48Z</time>
      </trkpt>
      <trkpt lat="50.12836" lon="3.60908">
        <ele>152.99</ele>
        <time>2015-04-12T08:27:53Z</time>
      </trkpt>
      <trkpt lat="50.12832" lon="3.60909">
        <ele>152.99</ele>
        <time>2015-04-12T08:27:54Z</time>
      </trkpt>
      <trkpt lat="50.12828" lon="3.6091">
        <ele>152.99</ele>
        <time>2015-04-12T08:27:55Z</time>
      </trkpt>
      <trkpt lat="50.12826" lon="3.60913">
        <ele>152.99</ele>
        <time>2015-04-12T08:27:56Z</time>
      </trkpt>
      <trkpt lat="50.12824" lon="3.60917">
        <ele>152.99</ele>
        <time>2015-04-12T08:27:57Z</time>
      </trkpt>
      <trkpt lat="50.12823" lon="3.6092">
        <ele>152.99</ele>
        <time>2015-04-12T08:27:58Z</time>
      </trkpt>
      <trkpt lat="50.12822" lon="3.60922">
        <ele>152.99</ele>
        <time>2015-04-12T08:27:59Z</time>
      </trkpt>
      <trkpt lat="50.12821" lon="3.60925">
        <ele>152.99</ele>
        <time>2015-04-12T08:28:00Z</time>
      </trkpt>
      <trkpt lat="50.12801" lon="3.6096">
        <ele>153.95</ele>
        <time>2015-04-12T08:28:10Z</time>
      </trkpt>
      <trkpt lat="50.12779" lon="3.60992">
        <ele>154.91</ele>
        <time>2015-04-12T08:28:19Z</time>
      </trkpt>
      <trkpt lat="50.12777" lon="3.60995">
        <ele>154.91</ele>
        <time>2015-04-12T08:28:20Z</time>
      </trkpt>
      <trkpt lat="50.12775" lon="3.60998">
        <ele>154.91</ele>
        <time>2015-04-12T08:28:21Z</time>
      </trkpt>
      <trkpt lat="50.12773" lon="3.61002">
        <ele>155.39</ele>
        <time>2015-04-12T08:28:22Z</time>
      </trkpt>
      <trkpt lat="50.12771" lon="3.61005">
        <ele>155.39</ele>
        <time>2015-04-12T08:28:23Z</time>
      </trkpt>
      <trkpt lat="50.12769" lon="3.61009">
        <ele>155.39</ele>
        <time>2015-04-12T08:28:24Z</time>
      </trkpt>
      <trkpt lat="50.12766" lon="3.61012">
        <ele>155.39</ele>
        <time>2015-04-12T08:28:25Z</time>
      </trkpt>
      <trkpt lat="50.12764" lon="3.61015">
        <ele>155.39</ele>
        <time>2015-04-12T08:28:26Z</time>
      </trkpt>
      <trkpt lat="50.12762" lon="3.61019">
        <ele>155.39</ele>
        <time>2015-04-12T08:28:27Z</time>
      </trkpt>
      <trkpt lat="50.1276" lon="3.61023">
        <ele>155.39</ele>
        <time>2015-04-12T08:28:28Z</time>
      </trkpt>
      <trkpt lat="50.12744" lon="3.6104">
        <ele>155.39</ele>
        <time>2015-04-12T08:28:35Z</time>
      </trkpt>
      <trkpt lat="50.12741" lon="3.61039">
        <ele>155.39</ele>
        <time>2015-04-12T08:28:36Z</time>
      </trkpt>
      <trkpt lat="50.12737" lon="3.61037">
        <ele>155.39</ele>
        <time>2015-04-12T08:28:37Z</time>
      </trkpt>
      <trkpt lat="50.12734" lon="3.61036">
        <ele>155.39</ele>
        <time>2015-04-12T08:28:38Z</time>
      </trkpt>
      <trkpt lat="50.12731" lon="3.61034">
        <ele>155.39</ele>
        <time>2015-04-12T08:28:39Z</time>
      </trkpt>
      <trkpt lat="50.12719" lon="3.61022">
        <ele>153.95</ele>
        <time>2015-04-12T08:28:43Z</time>
      </trkpt>
      <trkpt lat="50.12698" lon="3.61">
        <ele>152.03</ele>
        <time>2015-04-12T08:28:48Z</time>
      </trkpt>
      <trkpt lat="50.12691" lon="3.60989">
        <ele>152.03</ele>
        <time>2015-04-12T08:28:50Z</time>
      </trkpt>
      <trkpt lat="50.12691" lon="3.60983">
        <ele>152.03</ele>
        <time>2015-04-12T08:28:51Z</time>
      </trkpt>
      <trkpt lat="50.12692" lon="3.60979">
        <ele>152.03</ele>
        <time>2015-04-12T08:28:52Z</time>
      </trkpt>
      <trkpt lat="50.12694" lon="3.60974">
        <ele>152.03</ele>
        <time>2015-04-12T08:28:53Z</time>
      </trkpt>
      <trkpt lat="50.12697" lon="3.60968">
        <ele>152.03</ele>
        <time>2015-04-12T08:28:54Z</time>
      </trkpt>
      <trkpt lat="50.12699" lon="3.60963">
        <ele>152.03</ele>
        <time>2015-04-12T08:28:55Z</time>
      </trkpt>
      <trkpt lat="50.12702" lon="3.60957">
        <ele>152.03</ele>
        <time>2015-04-12T08:28:56Z</time>
      </trkpt>
      <trkpt lat="50.12721" lon="3.60913">
        <ele>152.51</ele>
        <time>2015-04-12T08:29:03Z</time>
      </trkpt>
      <trkpt lat="50.1274" lon="3.60862">
        <ele>152.51</ele>
        <time>2015-04-12T08:29:11Z</time>
      </trkpt>
      <trkpt lat="50.12745" lon="3.60833">
        <ele>152.51</ele>
        <time>2015-04-12T08:29:16Z</time>
      </trkpt>
      <trkpt lat="50.12745" lon="3.60826">
        <ele>153.47</ele>
        <time>2015-04-12T08:29:17Z</time>
      </trkpt>
      <trkpt lat="50.12745" lon="3.60819">
        <ele>153.47</ele>
        <time>2015-04-12T08:29:18Z</time>
      </trkpt>
      <trkpt lat="50.12745" lon="3.60813">
        <ele>153.47</ele>
        <time>2015-04-12T08:29:19Z</time>
      </trkpt>
      <trkpt lat="50.12744" lon="3.60805">
        <ele>153.47</ele>
        <time>2015-04-12T08:29:20Z</time>
      </trkpt>
      <trkpt lat="50.12742" lon="3.60799">
        <ele>153.47</ele>
        <time>2015-04-12T08:29:21Z</time>
      </trkpt>
      <trkpt lat="50.1274" lon="3.60791">
        <ele>153.47</ele>
        <time>2015-04-12T08:29:22Z</time>
      </trkpt>
      <trkpt lat="50.12739" lon="3.60784">
        <ele>153.47</ele>
        <time>2015-04-12T08:29:23Z</time>
      </trkpt>
      <trkpt lat="50.12739" lon="3.60776">
        <ele>153.47</ele>
        <time>2015-04-12T08:29:24Z</time>
      </trkpt>
      <trkpt lat="50.12739" lon="3.60768">
        <ele>153.47</ele>
        <time>2015-04-12T08:29:25Z</time>
      </trkpt>
      <trkpt lat="50.12743" lon="3.60721">
        <ele>153.47</ele>
        <time>2015-04-12T08:29:33Z</time>
      </trkpt>
      <trkpt lat="50.12747" lon="3.60713">
        <ele>153.47</ele>
        <time>2015-04-12T08:29:43Z</time>
      </trkpt>
      <trkpt lat="50.12748" lon="3.60713">
        <ele>153.47</ele>
        <time>2015-04-12T08:30:05Z</time>
      </trkpt>
      <trkpt lat="50.12749" lon="3.60713">
        <ele>153.47</ele>
        <time>2015-04-12T08:30:28Z</time>
      </trkpt>
      <trkpt lat="50.12749" lon="3.60714">
        <ele>153.47</ele>
        <time>2015-04-12T08:30:57Z</time>
      </trkpt>
      <trkpt lat="50.12747" lon="3.60715">
        <ele>153.47</ele>
        <time>2015-04-12T08:31:31Z</time>
      </trkpt>
      <trkpt lat="50.12746" lon="3.6071">
        <ele>153.47</ele>
        <time>2015-04-12T08:32:04Z</time>
      </trkpt>
      <trkpt lat="50.12748" lon="3.60712">
        <ele>153.47</ele>
        <time>2015-04-12T08:32:39Z</time>
      </trkpt>
      <trkpt lat="50.12749" lon="3.60713">
        <ele>153.47</ele>
        <time>2015-04-12T08:33:07Z</time>
      </trkpt>
      <trkpt lat="50.12749" lon="3.60714">
        <ele>153.47</ele>
        <time>2015-04-12T08:33:41Z</time>
      </trkpt>
      <trkpt lat="50.12749" lon="3.60714">
        <ele>153.95</ele>
        <time>2015-04-12T08:34:10Z</time>
      </trkpt>
      <trkpt lat="50.1275" lon="3.60714">
        <ele>153.95</ele>
        <time>2015-04-12T08:34:47Z</time>
      </trkpt>
      <trkpt lat="50.1275" lon="3.60711">
        <ele>154.43</ele>
        <time>2015-04-12T08:35:21Z</time>
      </trkpt>
      <trkpt lat="50.1275" lon="3.60709">
        <ele>154.43</ele>
        <time>2015-04-12T08:35:46Z</time>
      </trkpt>
      <trkpt lat="50.12749" lon="3.6071">
        <ele>154.43</ele>
        <time>2015-04-12T08:36:12Z</time>
      </trkpt>
      <trkpt lat="50.12749" lon="3.60707">
        <ele>154.43</ele>
        <time>2015-04-12T08:36:28Z</time>
      </trkpt>
      <trkpt lat="50.12748" lon="3.60698">
        <ele>155.87</ele>
        <time>2015-04-12T08:36:38Z</time>
      </trkpt>
      <trkpt lat="50.12751" lon="3.60694">
        <ele>155.87</ele>
        <time>2015-04-12T08:36:42Z</time>
      </trkpt>
      <trkpt lat="50.12764" lon="3.6069">
        <ele>155.87</ele>
        <time>2015-04-12T08:36:49Z</time>
      </trkpt>
      <trkpt lat="50.12771" lon="3.60668">
        <ele>156.35</ele>
        <time>2015-04-12T08:37:00Z</time>
      </trkpt>
      <trkpt lat="50.1277" lon="3.60663">
        <ele>156.83</ele>
        <time>2015-04-12T08:37:02Z</time>
      </trkpt>
      <trkpt lat="50.12754" lon="3.60625">
        <ele>158.75</ele>
        <time>2015-04-12T08:37:14Z</time>
      </trkpt>
      <trkpt lat="50.12736" lon="3.60605">
        <ele>159.72</ele>
        <time>2015-04-12T08:37:25Z</time>
      </trkpt>
      <trkpt lat="50.12735" lon="3.60602">
        <ele>159.72</ele>
        <time>2015-04-12T08:37:26Z</time>
      </trkpt>
      <trkpt lat="50.12734" lon="3.60599">
        <ele>159.72</ele>
        <time>2015-04-12T08:37:27Z</time>
      </trkpt>
      <trkpt lat="50.12733" lon="3.60596">
        <ele>159.72</ele>
        <time>2015-04-12T08:37:28Z</time>
      </trkpt>
      <trkpt lat="50.12732" lon="3.60593">
        <ele>159.72</ele>
        <time>2015-04-12T08:37:29Z</time>
      </trkpt>
      <trkpt lat="50.12731" lon="3.60591">
        <ele>159.72</ele>
        <time>2015-04-12T08:37:30Z</time>
      </trkpt>
      <trkpt lat="50.1273" lon="3.60589">
        <ele>159.72</ele>
        <time>2015-04-12T08:37:31Z</time>
      </trkpt>
      <trkpt lat="50.12728" lon="3.60587">
        <ele>159.72</ele>
        <time>2015-04-12T08:37:32Z</time>
      </trkpt>
      <trkpt lat="50.12727" lon="3.60586">
        <ele>159.72</ele>
        <time>2015-04-12T08:37:33Z</time>
      </trkpt>
      <trkpt lat="50.12725" lon="3.60585">
        <ele>159.72</ele>
        <time>2015-04-12T08:37:34Z</time>
      </trkpt>
      <trkpt lat="50.12723" lon="3.60584">
        <ele>159.72</ele>
        <time>2015-04-12T08:37:35Z</time>
      </trkpt>
      <trkpt lat="50.12705" lon="3.60569">
        <ele>161.16</ele>
        <time>2015-04-12T08:37:43Z</time>
      </trkpt>
      <trkpt lat="50.12704" lon="3.60567">
        <ele>161.16</ele>
        <time>2015-04-12T08:37:44Z</time>
      </trkpt>
      <trkpt lat="50.12702" lon="3.60564">
        <ele>161.16</ele>
        <time>2015-04-12T08:37:45Z</time>
      </trkpt>
      <trkpt lat="50.12702" lon="3.6056">
        <ele>161.16</ele>
        <time>2015-04-12T08:37:46Z</time>
      </trkpt>
      <trkpt lat="50.12704" lon="3.60543">
        <ele>161.64</ele>
        <time>2015-04-12T08:37:51Z</time>
      </trkpt>
      <trkpt lat="50.12701" lon="3.60525">
        <ele>162.12</ele>
        <time>2015-04-12T08:37:56Z</time>
      </trkpt>
      <trkpt lat="50.12699" lon="3.60522">
        <ele>162.12</ele>
        <time>2015-04-12T08:37:57Z</time>
      </trkpt>
      <trkpt lat="50.12697" lon="3.60518">
        <ele>162.12</ele>
        <time>2015-04-12T08:37:58Z</time>
      </trkpt>
      <trkpt lat="50.12669" lon="3.60477">
        <ele>162.12</ele>
        <time>2015-04-12T08:38:12Z</time>
      </trkpt>
      <trkpt lat="50.12644" lon="3.60437">
        <ele>163.08</ele>
        <time>2015-04-12T08:38:25Z</time>
      </trkpt>
      <trkpt lat="50.12621" lon="3.60403">
        <ele>163.08</ele>
        <time>2015-04-12T08:38:37Z</time>
      </trkpt>
      <trkpt lat="50.12597" lon="3.6036">
        <ele>163.08</ele>
        <time>2015-04-12T08:38:50Z</time>
      </trkpt>
      <trkpt lat="50.12597" lon="3.60357">
        <ele>163.08</ele>
        <time>2015-04-12T08:38:51Z</time>
      </trkpt>
      <trkpt lat="50.12597" lon="3.60354">
        <ele>163.08</ele>
        <time>2015-04-12T08:38:52Z</time>
      </trkpt>
      <trkpt lat="50.12598" lon="3.60351">
        <ele>163.08</ele>
        <time>2015-04-12T08:38:53Z</time>
      </trkpt>
      <trkpt lat="50.12598" lon="3.60348">
        <ele>163.08</ele>
        <time>2015-04-12T08:38:54Z</time>
      </trkpt>
      <trkpt lat="50.12599" lon="3.60344">
        <ele>163.08</ele>
        <time>2015-04-12T08:38:55Z</time>
      </trkpt>
      <trkpt lat="50.12599" lon="3.60341">
        <ele>163.08</ele>
        <time>2015-04-12T08:38:56Z</time>
      </trkpt>
      <trkpt lat="50.126" lon="3.60338">
        <ele>163.08</ele>
        <time>2015-04-12T08:38:57Z</time>
      </trkpt>
      <trkpt lat="50.12601" lon="3.60335">
        <ele>163.08</ele>
        <time>2015-04-12T08:38:58Z</time>
      </trkpt>
      <trkpt lat="50.12605" lon="3.60294">
        <ele>163.08</ele>
        <time>2015-04-12T08:39:09Z</time>
      </trkpt>
      <trkpt lat="50.12614" lon="3.60239">
        <ele>162.12</ele>
        <time>2015-04-12T08:39:21Z</time>
      </trkpt>
      <trkpt lat="50.12617" lon="3.60204">
        <ele>160.68</ele>
        <time>2015-04-12T08:39:31Z</time>
      </trkpt>
      <trkpt lat="50.12618" lon="3.60198">
        <ele>160.68</ele>
        <time>2015-04-12T08:39:35Z</time>
      </trkpt>
      <trkpt lat="50.12618" lon="3.60196">
        <ele>160.68</ele>
        <time>2015-04-12T08:39:36Z</time>
      </trkpt>
      <trkpt lat="50.12619" lon="3.60194">
        <ele>160.68</ele>
        <time>2015-04-12T08:39:37Z</time>
      </trkpt>
      <trkpt lat="50.12637" lon="3.60149">
        <ele>160.68</ele>
        <time>2015-04-12T08:39:50Z</time>
      </trkpt>
      <trkpt lat="50.12648" lon="3.6012">
        <ele>160.68</ele>
        <time>2015-04-12T08:39:57Z</time>
      </trkpt>
      <trkpt lat="50.12646" lon="3.60104">
        <ele>160.68</ele>
        <time>2015-04-12T08:40:01Z</time>
      </trkpt>
      <trkpt lat="50.12645" lon="3.60101">
        <ele>160.68</ele>
        <time>2015-04-12T08:40:02Z</time>
      </trkpt>
      <trkpt lat="50.12643" lon="3.60096">
        <ele>160.68</ele>
        <time>2015-04-12T08:40:03Z</time>
      </trkpt>
      <trkpt lat="50.12641" lon="3.60092">
        <ele>160.68</ele>
        <time>2015-04-12T08:40:04Z</time>
      </trkpt>
      <trkpt lat="50.1264" lon="3.60088">
        <ele>160.2</ele>
        <time>2015-04-12T08:40:05Z</time>
      </trkpt>
      <trkpt lat="50.1263" lon="3.60072">
        <ele>159.72</ele>
        <time>2015-04-12T08:40:10Z</time>
      </trkpt>
      <trkpt lat="50.12627" lon="3.6007">
        <ele>159.72</ele>
        <time>2015-04-12T08:40:11Z</time>
      </trkpt>
      <trkpt lat="50.12624" lon="3.6007">
        <ele>159.72</ele>
        <time>2015-04-12T08:40:12Z</time>
      </trkpt>
      <trkpt lat="50.12614" lon="3.60076">
        <ele>159.72</ele>
        <time>2015-04-12T08:40:16Z</time>
      </trkpt>
      <trkpt lat="50.1259" lon="3.60099">
        <ele>159.72</ele>
        <time>2015-04-12T08:40:28Z</time>
      </trkpt>
      <trkpt lat="50.12573" lon="3.60097">
        <ele>159.72</ele>
        <time>2015-04-12T08:40:35Z</time>
      </trkpt>
      <trkpt lat="50.12544" lon="3.60086">
        <ele>159.24</ele>
        <time>2015-04-12T08:40:47Z</time>
      </trkpt>
      <trkpt lat="50.12539" lon="3.60081">
        <ele>159.24</ele>
        <time>2015-04-12T08:40:55Z</time>
      </trkpt>
      <trkpt lat="50.12538" lon="3.60079">
        <ele>159.24</ele>
        <time>2015-04-12T08:40:56Z</time>
      </trkpt>
      <trkpt lat="50.12537" lon="3.60077">
        <ele>159.24</ele>
        <time>2015-04-12T08:40:57Z</time>
      </trkpt>
      <trkpt lat="50.12536" lon="3.60075">
        <ele>159.24</ele>
        <time>2015-04-12T08:40:58Z</time>
      </trkpt>
      <trkpt lat="50.12534" lon="3.60075">
        <ele>158.75</ele>
        <time>2015-04-12T08:40:59Z</time>
      </trkpt>
      <trkpt lat="50.12532" lon="3.60075">
        <ele>158.75</ele>
        <time>2015-04-12T08:41:00Z</time>
      </trkpt>
      <trkpt lat="50.12531" lon="3.60075">
        <ele>158.75</ele>
        <time>2015-04-12T08:41:01Z</time>
      </trkpt>
      <trkpt lat="50.12529" lon="3.60076">
        <ele>158.75</ele>
        <time>2015-04-12T08:41:02Z</time>
      </trkpt>
      <trkpt lat="50.12527" lon="3.60075">
        <ele>158.75</ele>
        <time>2015-04-12T08:41:03Z</time>
      </trkpt>
      <trkpt lat="50.12525" lon="3.60074">
        <ele>158.75</ele>
        <time>2015-04-12T08:41:04Z</time>
      </trkpt>
      <trkpt lat="50.12523" lon="3.60072">
        <ele>158.75</ele>
        <time>2015-04-12T08:41:05Z</time>
      </trkpt>
      <trkpt lat="50.12512" lon="3.60063">
        <ele>158.27</ele>
        <time>2015-04-12T08:41:10Z</time>
      </trkpt>
      <trkpt lat="50.12509" lon="3.60063">
        <ele>158.27</ele>
        <time>2015-04-12T08:41:11Z</time>
      </trkpt>
      <trkpt lat="50.12506" lon="3.60065">
        <ele>158.27</ele>
        <time>2015-04-12T08:41:12Z</time>
      </trkpt>
      <trkpt lat="50.12504" lon="3.60067">
        <ele>158.27</ele>
        <time>2015-04-12T08:41:13Z</time>
      </trkpt>
      <trkpt lat="50.12502" lon="3.6007">
        <ele>158.27</ele>
        <time>2015-04-12T08:41:14Z</time>
      </trkpt>
      <trkpt lat="50.12475" lon="3.60099">
        <ele>158.27</ele>
        <time>2015-04-12T08:41:26Z</time>
      </trkpt>
      <trkpt lat="50.12464" lon="3.60111">
        <ele>158.27</ele>
        <time>2015-04-12T08:41:34Z</time>
      </trkpt>
      <trkpt lat="50.12457" lon="3.60119">
        <ele>158.27</ele>
        <time>2015-04-12T08:41:38Z</time>
      </trkpt>
      <trkpt lat="50.12455" lon="3.60119">
        <ele>158.27</ele>
        <time>2015-04-12T08:41:39Z</time>
      </trkpt>
      <trkpt lat="50.12453" lon="3.6012">
        <ele>158.27</ele>
        <time>2015-04-12T08:41:40Z</time>
      </trkpt>
      <trkpt lat="50.1245" lon="3.60122">
        <ele>158.27</ele>
        <time>2015-04-12T08:41:41Z</time>
      </trkpt>
      <trkpt lat="50.12449" lon="3.60124">
        <ele>158.27</ele>
        <time>2015-04-12T08:41:42Z</time>
      </trkpt>
      <trkpt lat="50.12447" lon="3.60127">
        <ele>158.27</ele>
        <time>2015-04-12T08:41:43Z</time>
      </trkpt>
      <trkpt lat="50.12446" lon="3.60129">
        <ele>158.27</ele>
        <time>2015-04-12T08:41:44Z</time>
      </trkpt>
      <trkpt lat="50.12445" lon="3.60132">
        <ele>158.27</ele>
        <time>2015-04-12T08:41:45Z</time>
      </trkpt>
      <trkpt lat="50.12423" lon="3.60155">
        <ele>159.72</ele>
        <time>2015-04-12T08:41:58Z</time>
      </trkpt>
      <trkpt lat="50.12404" lon="3.60163">
        <ele>159.72</ele>
        <time>2015-04-12T08:42:08Z</time>
      </trkpt>
      <trkpt lat="50.12402" lon="3.60159">
        <ele>159.72</ele>
        <time>2015-04-12T08:42:09Z</time>
      </trkpt>
      <trkpt lat="50.12399" lon="3.60155">
        <ele>159.72</ele>
        <time>2015-04-12T08:42:10Z</time>
      </trkpt>
      <trkpt lat="50.12397" lon="3.60149">
        <ele>159.72</ele>
        <time>2015-04-12T08:42:11Z</time>
      </trkpt>
      <trkpt lat="50.12394" lon="3.60143">
        <ele>159.72</ele>
        <time>2015-04-12T08:42:12Z</time>
      </trkpt>
      <trkpt lat="50.1235" lon="3.60059">
        <ele>157.79</ele>
        <time>2015-04-12T08:42:25Z</time>
      </trkpt>
      <trkpt lat="50.12337" lon="3.60032">
        <ele>158.75</ele>
        <time>2015-04-12T08:42:30Z</time>
      </trkpt>
      <trkpt lat="50.12309" lon="3.59978">
        <ele>160.68</ele>
        <time>2015-04-12T08:42:41Z</time>
      </trkpt>
      <trkpt lat="50.12289" lon="3.59937">
        <ele>161.64</ele>
        <time>2015-04-12T08:42:51Z</time>
      </trkpt>
      <trkpt lat="50.12268" lon="3.59896">
        <ele>161.64</ele>
        <time>2015-04-12T08:43:01Z</time>
      </trkpt>
      <trkpt lat="50.12242" lon="3.59846">
        <ele>162.12</ele>
        <time>2015-04-12T08:43:13Z</time>
      </trkpt>
      <trkpt lat="50.12224" lon="3.59809">
        <ele>162.12</ele>
        <time>2015-04-12T08:43:22Z</time>
      </trkpt>
      <trkpt lat="50.12205" lon="3.59774">
        <ele>162.6</ele>
        <time>2015-04-12T08:43:28Z</time>
      </trkpt>
      <trkpt lat="50.12195" lon="3.59751">
        <ele>162.6</ele>
        <time>2015-04-12T08:43:32Z</time>
      </trkpt>
      <trkpt lat="50.12169" lon="3.59701">
        <ele>162.6</ele>
        <time>2015-04-12T08:43:43Z</time>
      </trkpt>
      <trkpt lat="50.12151" lon="3.59666">
        <ele>162.6</ele>
        <time>2015-04-12T08:43:52Z</time>
      </trkpt>
      <trkpt lat="50.12133" lon="3.59624">
        <ele>163.08</ele>
        <time>2015-04-12T08:44:04Z</time>
      </trkpt>
      <trkpt lat="50.12112" lon="3.59577">
        <ele>163.08</ele>
        <time>2015-04-12T08:44:16Z</time>
      </trkpt>
      <trkpt lat="50.12078" lon="3.59511">
        <ele>161.16</ele>
        <time>2015-04-12T08:44:30Z</time>
      </trkpt>
      <trkpt lat="50.12066" lon="3.59488">
        <ele>160.68</ele>
        <time>2015-04-12T08:44:35Z</time>
      </trkpt>
      <trkpt lat="50.12046" lon="3.5947">
        <ele>159.24</ele>
        <time>2015-04-12T08:44:40Z</time>
      </trkpt>
      <trkpt lat="50.12026" lon="3.5946">
        <ele>158.27</ele>
        <time>2015-04-12T08:44:45Z</time>
      </trkpt>
      <trkpt lat="50.12002" lon="3.59449">
        <ele>157.31</ele>
        <time>2015-04-12T08:44:50Z</time>
      </trkpt>
      <trkpt lat="50.11977" lon="3.59423">
        <ele>156.83</ele>
        <time>2015-04-12T08:44:57Z</time>
      </trkpt>
      <trkpt lat="50.11981" lon="3.59397">
        <ele>155.39</ele>
        <time>2015-04-12T08:45:02Z</time>
      </trkpt>
      <trkpt lat="50.12074" lon="3.59312">
        <ele>158.27</ele>
        <time>2015-04-12T08:45:21Z</time>
      </trkpt>
      <trkpt lat="50.12142" lon="3.59245">
        <ele>160.68</ele>
        <time>2015-04-12T08:45:35Z</time>
      </trkpt>
      <trkpt lat="50.12206" lon="3.59157">
        <ele>158.75</ele>
        <time>2015-04-12T08:45:51Z</time>
      </trkpt>
      <trkpt lat="50.12236" lon="3.59105">
        <ele>158.27</ele>
        <time>2015-04-12T08:45:59Z</time>
      </trkpt>
      <trkpt lat="50.12238" lon="3.59097">
        <ele>158.27</ele>
        <time>2015-04-12T08:46:00Z</time>
      </trkpt>
      <trkpt lat="50.12239" lon="3.59087">
        <ele>158.27</ele>
        <time>2015-04-12T08:46:01Z</time>
      </trkpt>
      <trkpt lat="50.12239" lon="3.59076">
        <ele>157.79</ele>
        <time>2015-04-12T08:46:02Z</time>
      </trkpt>
      <trkpt lat="50.12238" lon="3.59068">
        <ele>157.79</ele>
        <time>2015-04-12T08:46:03Z</time>
      </trkpt>
      <trkpt lat="50.12217" lon="3.58904">
        <ele>154.43</ele>
        <time>2015-04-12T08:46:21Z</time>
      </trkpt>
      <trkpt lat="50.12195" lon="3.58801">
        <ele>151.06</ele>
        <time>2015-04-12T08:46:31Z</time>
      </trkpt>
      <trkpt lat="50.12156" lon="3.58668">
        <ele>150.1</ele>
        <time>2015-04-12T08:46:43Z</time>
      </trkpt>
      <trkpt lat="50.12108" lon="3.58503">
        <ele>148.66</ele>
        <time>2015-04-12T08:46:59Z</time>
      </trkpt>
      <trkpt lat="50.12054" lon="3.5831">
        <ele>146.26</ele>
        <time>2015-04-12T08:47:19Z</time>
      </trkpt>
      <trkpt lat="50.12014" lon="3.58164">
        <ele>145.3</ele>
        <time>2015-04-12T08:47:36Z</time>
      </trkpt>
      <trkpt lat="50.11977" lon="3.58023">
        <ele>143.85</ele>
        <time>2015-04-12T08:47:53Z</time>
      </trkpt>
      <trkpt lat="50.11934" lon="3.57902">
        <ele>142.41</ele>
        <time>2015-04-12T08:48:09Z</time>
      </trkpt>
      <trkpt lat="50.11883" lon="3.5776">
        <ele>139.05</ele>
        <time>2015-04-12T08:48:27Z</time>
      </trkpt>
      <trkpt lat="50.11868" lon="3.57709">
        <ele>138.09</ele>
        <time>2015-04-12T08:48:33Z</time>
      </trkpt>
      <trkpt lat="50.11834" lon="3.57589">
        <ele>136.64</ele>
        <time>2015-04-12T08:48:48Z</time>
      </trkpt>
      <trkpt lat="50.11818" lon="3.57552">
        <ele>136.16</ele>
        <time>2015-04-12T08:48:53Z</time>
      </trkpt>
      <trkpt lat="50.11765" lon="3.57482">
        <ele>133.28</ele>
        <time>2015-04-12T08:49:05Z</time>
      </trkpt>
      <trkpt lat="50.11762" lon="3.57474">
        <ele>133.28</ele>
        <time>2015-04-12T08:49:06Z</time>
      </trkpt>
      <trkpt lat="50.11762" lon="3.57463">
        <ele>132.8</ele>
        <time>2015-04-12T08:49:07Z</time>
      </trkpt>
      <trkpt lat="50.11763" lon="3.57455">
        <ele>132.8</ele>
        <time>2015-04-12T08:49:08Z</time>
      </trkpt>
      <trkpt lat="50.11765" lon="3.57447">
        <ele>132.8</ele>
        <time>2015-04-12T08:49:09Z</time>
      </trkpt>
      <trkpt lat="50.11767" lon="3.57438">
        <ele>132.8</ele>
        <time>2015-04-12T08:49:10Z</time>
      </trkpt>
      <trkpt lat="50.11782" lon="3.57391">
        <ele>132.8</ele>
        <time>2015-04-12T08:49:15Z</time>
      </trkpt>
      <trkpt lat="50.11802" lon="3.57259">
        <ele>129.92</ele>
        <time>2015-04-12T08:49:24Z</time>
      </trkpt>
      <trkpt lat="50.1182" lon="3.57183">
        <ele>128.47</ele>
        <time>2015-04-12T08:49:30Z</time>
      </trkpt>
      <trkpt lat="50.11822" lon="3.57171">
        <ele>128.47</ele>
        <time>2015-04-12T08:49:31Z</time>
      </trkpt>
      <trkpt lat="50.11825" lon="3.57159">
        <ele>127.51</ele>
        <time>2015-04-12T08:49:32Z</time>
      </trkpt>
      <trkpt lat="50.11862" lon="3.57019">
        <ele>124.63</ele>
        <time>2015-04-12T08:49:45Z</time>
      </trkpt>
      <trkpt lat="50.11906" lon="3.56881">
        <ele>122.22</ele>
        <time>2015-04-12T08:49:59Z</time>
      </trkpt>
      <trkpt lat="50.11919" lon="3.56846">
        <ele>121.26</ele>
        <time>2015-04-12T08:50:03Z</time>
      </trkpt>
      <trkpt lat="50.11971" lon="3.5672">
        <ele>118.38</ele>
        <time>2015-04-12T08:50:15Z</time>
      </trkpt>
      <trkpt lat="50.12005" lon="3.56637">
        <ele>116.46</ele>
        <time>2015-04-12T08:50:23Z</time>
      </trkpt>
      <trkpt lat="50.12034" lon="3.56558">
        <ele>114.53</ele>
        <time>2015-04-12T08:50:30Z</time>
      </trkpt>
      <trkpt lat="50.12072" lon="3.56477">
        <ele>111.17</ele>
        <time>2015-04-12T08:50:38Z</time>
      </trkpt>
      <trkpt lat="50.12077" lon="3.56467">
        <ele>109.73</ele>
        <time>2015-04-12T08:50:39Z</time>
      </trkpt>
      <trkpt lat="50.12081" lon="3.56455">
        <ele>109.73</ele>
        <time>2015-04-12T08:50:40Z</time>
      </trkpt>
      <trkpt lat="50.12092" lon="3.56417">
        <ele>108.29</ele>
        <time>2015-04-12T08:50:43Z</time>
      </trkpt>
      <trkpt lat="50.12104" lon="3.56363">
        <ele>106.36</ele>
        <time>2015-04-12T08:50:47Z</time>
      </trkpt>
      <trkpt lat="50.12117" lon="3.56308">
        <ele>103</ele>
        <time>2015-04-12T08:50:51Z</time>
      </trkpt>
      <trkpt lat="50.12122" lon="3.56295">
        <ele>103</ele>
        <time>2015-04-12T08:50:52Z</time>
      </trkpt>
      <trkpt lat="50.12143" lon="3.56231">
        <ele>99.63</ele>
        <time>2015-04-12T08:50:57Z</time>
      </trkpt>
      <trkpt lat="50.12147" lon="3.56219">
        <ele>99.63</ele>
        <time>2015-04-12T08:50:58Z</time>
      </trkpt>
      <trkpt lat="50.1215" lon="3.56206">
        <ele>99.15</ele>
        <time>2015-04-12T08:50:59Z</time>
      </trkpt>
      <trkpt lat="50.12153" lon="3.56192">
        <ele>99.15</ele>
        <time>2015-04-12T08:51:00Z</time>
      </trkpt>
      <trkpt lat="50.12168" lon="3.56054">
        <ele>98.19</ele>
        <time>2015-04-12T08:51:11Z</time>
      </trkpt>
      <trkpt lat="50.12179" lon="3.55953">
        <ele>99.63</ele>
        <time>2015-04-12T08:51:22Z</time>
      </trkpt>
      <trkpt lat="50.12179" lon="3.55944">
        <ele>99.63</ele>
        <time>2015-04-12T08:51:23Z</time>
      </trkpt>
      <trkpt lat="50.12178" lon="3.55919">
        <ele>99.63</ele>
        <time>2015-04-12T08:51:26Z</time>
      </trkpt>
      <trkpt lat="50.12177" lon="3.5591">
        <ele>99.63</ele>
        <time>2015-04-12T08:51:27Z</time>
      </trkpt>
      <trkpt lat="50.12174" lon="3.55884">
        <ele>99.63</ele>
        <time>2015-04-12T08:51:30Z</time>
      </trkpt>
      <trkpt lat="50.12175" lon="3.55849">
        <ele>99.63</ele>
        <time>2015-04-12T08:51:34Z</time>
      </trkpt>
      <trkpt lat="50.12179" lon="3.55823">
        <ele>99.63</ele>
        <time>2015-04-12T08:51:37Z</time>
      </trkpt>
      <trkpt lat="50.12181" lon="3.55815">
        <ele>99.63</ele>
        <time>2015-04-12T08:51:38Z</time>
      </trkpt>
      <trkpt lat="50.12183" lon="3.55807">
        <ele>99.63</ele>
        <time>2015-04-12T08:51:39Z</time>
      </trkpt>
      <trkpt lat="50.12192" lon="3.55768">
        <ele>99.63</ele>
        <time>2015-04-12T08:51:44Z</time>
      </trkpt>
      <trkpt lat="50.12194" lon="3.55759">
        <ele>99.63</ele>
        <time>2015-04-12T08:51:45Z</time>
      </trkpt>
      <trkpt lat="50.12194" lon="3.55751">
        <ele>99.63</ele>
        <time>2015-04-12T08:51:46Z</time>
      </trkpt>
      <trkpt lat="50.12194" lon="3.55743">
        <ele>99.63</ele>
        <time>2015-04-12T08:51:47Z</time>
      </trkpt>
      <trkpt lat="50.12194" lon="3.55735">
        <ele>99.63</ele>
        <time>2015-04-12T08:51:48Z</time>
      </trkpt>
      <trkpt lat="50.12193" lon="3.55727">
        <ele>99.63</ele>
        <time>2015-04-12T08:51:49Z</time>
      </trkpt>
      <trkpt lat="50.12192" lon="3.55719">
        <ele>99.63</ele>
        <time>2015-04-12T08:51:50Z</time>
      </trkpt>
      <trkpt lat="50.12179" lon="3.55642">
        <ele>99.63</ele>
        <time>2015-04-12T08:52:00Z</time>
      </trkpt>
      <trkpt lat="50.12177" lon="3.55634">
        <ele>99.63</ele>
        <time>2015-04-12T08:52:01Z</time>
      </trkpt>
      <trkpt lat="50.12176" lon="3.55626">
        <ele>99.63</ele>
        <time>2015-04-12T08:52:02Z</time>
      </trkpt>
      <trkpt lat="50.12175" lon="3.55619">
        <ele>99.63</ele>
        <time>2015-04-12T08:52:03Z</time>
      </trkpt>
      <trkpt lat="50.12175" lon="3.55611">
        <ele>99.63</ele>
        <time>2015-04-12T08:52:04Z</time>
      </trkpt>
      <trkpt lat="50.12174" lon="3.55604">
        <ele>99.63</ele>
        <time>2015-04-12T08:52:05Z</time>
      </trkpt>
      <trkpt lat="50.12161" lon="3.55531">
        <ele>98.19</ele>
        <time>2015-04-12T08:52:15Z</time>
      </trkpt>
      <trkpt lat="50.12142" lon="3.55422">
        <ele>96.27</ele>
        <time>2015-04-12T08:52:27Z</time>
      </trkpt>
      <trkpt lat="50.12142" lon="3.55413">
        <ele>96.27</ele>
        <time>2015-04-12T08:52:28Z</time>
      </trkpt>
      <trkpt lat="50.12134" lon="3.5526">
        <ele>96.75</ele>
        <time>2015-04-12T08:52:45Z</time>
      </trkpt>
      <trkpt lat="50.12122" lon="3.55202">
        <ele>97.23</ele>
        <time>2015-04-12T08:52:52Z</time>
      </trkpt>
      <trkpt lat="50.12109" lon="3.55146">
        <ele>97.71</ele>
        <time>2015-04-12T08:52:59Z</time>
      </trkpt>
      <trkpt lat="50.12108" lon="3.55138">
        <ele>97.71</ele>
        <time>2015-04-12T08:53:00Z</time>
      </trkpt>
      <trkpt lat="50.12073" lon="3.54979">
        <ele>97.71</ele>
        <time>2015-04-12T08:53:20Z</time>
      </trkpt>
      <trkpt lat="50.12064" lon="3.54944">
        <ele>96.27</ele>
        <time>2015-04-12T08:53:24Z</time>
      </trkpt>
      <trkpt lat="50.12036" lon="3.5482">
        <ele>95.79</ele>
        <time>2015-04-12T08:53:38Z</time>
      </trkpt>
      <trkpt lat="50.11979" lon="3.54727">
        <ele>92.42</ele>
        <time>2015-04-12T08:53:51Z</time>
      </trkpt>
      <trkpt lat="50.11931" lon="3.54631">
        <ele>91.46</ele>
        <time>2015-04-12T08:54:03Z</time>
      </trkpt>
      <trkpt lat="50.1193" lon="3.54622">
        <ele>91.46</ele>
        <time>2015-04-12T08:54:04Z</time>
      </trkpt>
      <trkpt lat="50.11929" lon="3.54613">
        <ele>91.46</ele>
        <time>2015-04-12T08:54:05Z</time>
      </trkpt>
      <trkpt lat="50.11929" lon="3.54604">
        <ele>91.46</ele>
        <time>2015-04-12T08:54:06Z</time>
      </trkpt>
      <trkpt lat="50.11937" lon="3.54448">
        <ele>91.46</ele>
        <time>2015-04-12T08:54:23Z</time>
      </trkpt>
      <trkpt lat="50.11939" lon="3.54423">
        <ele>91.46</ele>
        <time>2015-04-12T08:54:27Z</time>
      </trkpt>
      <trkpt lat="50.11941" lon="3.54424">
        <ele>91.46</ele>
        <time>2015-04-12T08:54:28Z</time>
      </trkpt>
      <trkpt lat="50.11941" lon="3.54426">
        <ele>91.46</ele>
        <time>2015-04-12T08:54:29Z</time>
      </trkpt>
      <trkpt lat="50.11941" lon="3.54428">
        <ele>91.46</ele>
        <time>2015-04-12T08:54:30Z</time>
      </trkpt>
      <trkpt lat="50.1194" lon="3.54432">
        <ele>91.46</ele>
        <time>2015-04-12T08:54:31Z</time>
      </trkpt>
      <trkpt lat="50.11938" lon="3.54436">
        <ele>91.46</ele>
        <time>2015-04-12T08:54:32Z</time>
      </trkpt>
      <trkpt lat="50.11937" lon="3.54437">
        <ele>91.46</ele>
        <time>2015-04-12T08:54:33Z</time>
      </trkpt>
      <trkpt lat="50.11935" lon="3.54437">
        <ele>91.46</ele>
        <time>2015-04-12T08:54:34Z</time>
      </trkpt>
      <trkpt lat="50.11933" lon="3.54437">
        <ele>91.46</ele>
        <time>2015-04-12T08:54:35Z</time>
      </trkpt>
      <trkpt lat="50.11931" lon="3.54437">
        <ele>91.46</ele>
        <time>2015-04-12T08:54:36Z</time>
      </trkpt>
      <trkpt lat="50.11928" lon="3.54438">
        <ele>91.46</ele>
        <time>2015-04-12T08:54:37Z</time>
      </trkpt>
      <trkpt lat="50.11925" lon="3.54439">
        <ele>91.46</ele>
        <time>2015-04-12T08:54:38Z</time>
      </trkpt>
      <trkpt lat="50.11921" lon="3.54439">
        <ele>91.46</ele>
        <time>2015-04-12T08:54:39Z</time>
      </trkpt>
      <trkpt lat="50.11913" lon="3.54441">
        <ele>91.46</ele>
        <time>2015-04-12T08:54:41Z</time>
      </trkpt>
      <trkpt lat="50.11901" lon="3.54447">
        <ele>90.98</ele>
        <time>2015-04-12T08:54:46Z</time>
      </trkpt>
      <trkpt lat="50.11882" lon="3.54407">
        <ele>90.5</ele>
        <time>2015-04-12T08:54:56Z</time>
      </trkpt>
      <trkpt lat="50.11873" lon="3.54396">
        <ele>90.5</ele>
        <time>2015-04-12T08:55:05Z</time>
      </trkpt>
      <trkpt lat="50.1187" lon="3.54395">
        <ele>89.54</ele>
        <time>2015-04-12T08:55:10Z</time>
      </trkpt>
      <trkpt lat="50.11854" lon="3.54415">
        <ele>88.58</ele>
        <time>2015-04-12T08:55:18Z</time>
      </trkpt>
      <trkpt lat="50.11851" lon="3.54418">
        <ele>88.1</ele>
        <time>2015-04-12T08:55:19Z</time>
      </trkpt>
      <trkpt lat="50.11804" lon="3.54464">
        <ele>88.1</ele>
        <time>2015-04-12T08:55:33Z</time>
      </trkpt>
      <trkpt lat="50.11759" lon="3.54495">
        <ele>88.1</ele>
        <time>2015-04-12T08:55:47Z</time>
      </trkpt>
      <trkpt lat="50.11742" lon="3.54497">
        <ele>89.54</ele>
        <time>2015-04-12T08:55:52Z</time>
      </trkpt>
      <trkpt lat="50.11702" lon="3.545">
        <ele>90.5</ele>
        <time>2015-04-12T08:56:05Z</time>
      </trkpt>
      <trkpt lat="50.11653" lon="3.54495">
        <ele>92.9</ele>
        <time>2015-04-12T08:56:21Z</time>
      </trkpt>
      <trkpt lat="50.11618" lon="3.54487">
        <ele>93.87</ele>
        <time>2015-04-12T08:56:34Z</time>
      </trkpt>
      <trkpt lat="50.11609" lon="3.54482">
        <ele>93.87</ele>
        <time>2015-04-12T08:56:40Z</time>
      </trkpt>
      <trkpt lat="50.11609" lon="3.54479">
        <ele>93.87</ele>
        <time>2015-04-12T08:56:41Z</time>
      </trkpt>
      <trkpt lat="50.11609" lon="3.54475">
        <ele>93.87</ele>
        <time>2015-04-12T08:56:42Z</time>
      </trkpt>
      <trkpt lat="50.11609" lon="3.54471">
        <ele>94.35</ele>
        <time>2015-04-12T08:56:43Z</time>
      </trkpt>
      <trkpt lat="50.1161" lon="3.54467">
        <ele>94.35</ele>
        <time>2015-04-12T08:56:44Z</time>
      </trkpt>
      <trkpt lat="50.11611" lon="3.54462">
        <ele>94.35</ele>
        <time>2015-04-12T08:56:45Z</time>
      </trkpt>
      <trkpt lat="50.11612" lon="3.54457">
        <ele>94.35</ele>
        <time>2015-04-12T08:56:46Z</time>
      </trkpt>
      <trkpt lat="50.11632" lon="3.54366">
        <ele>95.79</ele>
        <time>2015-04-12T08:57:02Z</time>
      </trkpt>
      <trkpt lat="50.11643" lon="3.543">
        <ele>96.27</ele>
        <time>2015-04-12T08:57:12Z</time>
      </trkpt>
      <trkpt lat="50.11644" lon="3.54294">
        <ele>96.27</ele>
        <time>2015-04-12T08:57:13Z</time>
      </trkpt>
      <trkpt lat="50.11645" lon="3.54288">
        <ele>96.27</ele>
        <time>2015-04-12T08:57:14Z</time>
      </trkpt>
      <trkpt lat="50.11651" lon="3.54248">
        <ele>97.23</ele>
        <time>2015-04-12T08:57:20Z</time>
      </trkpt>
      <trkpt lat="50.11652" lon="3.54242">
        <ele>97.23</ele>
        <time>2015-04-12T08:57:21Z</time>
      </trkpt>
      <trkpt lat="50.11653" lon="3.54175">
        <ele>99.63</ele>
        <time>2015-04-12T08:57:34Z</time>
      </trkpt>
      <trkpt lat="50.11656" lon="3.54173">
        <ele>99.63</ele>
        <time>2015-04-12T08:57:35Z</time>
      </trkpt>
      <trkpt lat="50.11659" lon="3.54171">
        <ele>99.63</ele>
        <time>2015-04-12T08:57:36Z</time>
      </trkpt>
      <trkpt lat="50.11686" lon="3.54162">
        <ele>98.19</ele>
        <time>2015-04-12T08:57:42Z</time>
      </trkpt>
      <trkpt lat="50.11744" lon="3.54144">
        <ele>94.83</ele>
        <time>2015-04-12T08:57:51Z</time>
      </trkpt>
      <trkpt lat="50.11759" lon="3.54135">
        <ele>93.87</ele>
        <time>2015-04-12T08:57:55Z</time>
      </trkpt>
      <trkpt lat="50.1176" lon="3.54132">
        <ele>93.87</ele>
        <time>2015-04-12T08:57:56Z</time>
      </trkpt>
      <trkpt lat="50.11759" lon="3.54128">
        <ele>93.87</ele>
        <time>2015-04-12T08:57:57Z</time>
      </trkpt>
      <trkpt lat="50.11757" lon="3.54123">
        <ele>93.87</ele>
        <time>2015-04-12T08:57:58Z</time>
      </trkpt>
      <trkpt lat="50.11755" lon="3.54118">
        <ele>93.87</ele>
        <time>2015-04-12T08:57:59Z</time>
      </trkpt>
      <trkpt lat="50.11753" lon="3.54112">
        <ele>93.87</ele>
        <time>2015-04-12T08:58:00Z</time>
      </trkpt>
      <trkpt lat="50.11751" lon="3.54106">
        <ele>93.87</ele>
        <time>2015-04-12T08:58:01Z</time>
      </trkpt>
      <trkpt lat="50.11749" lon="3.54098">
        <ele>93.87</ele>
        <time>2015-04-12T08:58:02Z</time>
      </trkpt>
      <trkpt lat="50.11747" lon="3.54091">
        <ele>93.87</ele>
        <time>2015-04-12T08:58:03Z</time>
      </trkpt>
      <trkpt lat="50.11742" lon="3.54075">
        <ele>95.79</ele>
        <time>2015-04-12T08:58:05Z</time>
      </trkpt>
      <trkpt lat="50.11731" lon="3.54038">
        <ele>97.71</ele>
        <time>2015-04-12T08:58:14Z</time>
      </trkpt>
      <trkpt lat="50.11731" lon="3.54035">
        <ele>97.71</ele>
        <time>2015-04-12T08:58:15Z</time>
      </trkpt>
      <trkpt lat="50.11732" lon="3.54033">
        <ele>97.71</ele>
        <time>2015-04-12T08:58:16Z</time>
      </trkpt>
      <trkpt lat="50.11733" lon="3.5403">
        <ele>97.71</ele>
        <time>2015-04-12T08:58:17Z</time>
      </trkpt>
      <trkpt lat="50.11734" lon="3.54028">
        <ele>97.71</ele>
        <time>2015-04-12T08:58:18Z</time>
      </trkpt>
      <trkpt lat="50.11748" lon="3.53997">
        <ele>97.71</ele>
        <time>2015-04-12T08:58:31Z</time>
      </trkpt>
      <trkpt lat="50.11749" lon="3.53998">
        <ele>97.71</ele>
        <time>2015-04-12T08:58:42Z</time>
      </trkpt>
      <trkpt lat="50.11752" lon="3.54005">
        <ele>97.71</ele>
        <time>2015-04-12T08:58:56Z</time>
      </trkpt>
      <trkpt lat="50.11754" lon="3.54016">
        <ele>97.71</ele>
        <time>2015-04-12T08:59:07Z</time>
      </trkpt>
      <trkpt lat="50.11757" lon="3.54022">
        <ele>97.71</ele>
        <time>2015-04-12T08:59:18Z</time>
      </trkpt>
      <trkpt lat="50.11757" lon="3.54022">
        <ele>97.71</ele>
        <time>2015-04-12T08:59:45Z</time>
      </trkpt>
      <trkpt lat="50.11757" lon="3.54024">
        <ele>97.71</ele>
        <time>2015-04-12T09:00:10Z</time>
      </trkpt>
    </trkseg>
  </trk>
</gpx>